<?xml version="1.0" encoding="UTF-8"?>
<gpx xmlns="http://www.topografix.com/GPX/1/1" xmlns:gpsies="http://www.gpsies.com/GPX/1/0" creator="GPSies http://www.gpsies.com - &amp;#1051;&amp;#1077;&amp;#1089; &amp;#1069;&amp;#1096;&amp;#1090;&amp;#1072;&amp;#1086;&amp;#1083;&amp;#1100; - &amp;#1062;&amp;#1086;&amp;#1088;&amp;#1072; (New!)" version="1.1" xmlns:xsi="http://www.w3.org/2001/XMLSchema-instance" xsi:schemaLocation="http://www.topografix.com/GPX/1/1 http://www.topografix.com/GPX/1/1/gpx.xsd http://www.gpsies.com/GPX/1/0 http://www.gpsies.com/gpsies.xsd">
  <metadata>
    <name>Лес Эштаоль - Цора (New!)</name>
    <author>
      <name>igorsk</name>
      <link href="http://www.gpsies.com/mapUser.do?username=igorsk">
        <text>igorsk on GPSies.com</text>
        <type>GPSiesUserOnWeb</type>
      </link>
    </author>
    <link href="http://www.gpsies.com/map.do?fileId=pirpxfppvrdaqwmw">
      <text>Лес Эштаоль - Цора (New!) on GPSies.com</text>
      <type>trackOnWeb</type>
    </link>
    <time>2017-09-03T14:37:34Z</time>
    <extensions>
      <gpsies:property>round trip</gpsies:property>
      <gpsies:trackLengthMeter>25638.338263636895</gpsies:trackLengthMeter>
      <gpsies:totalAscentMeter>659.0</gpsies:totalAscentMeter>
      <gpsies:totalDescentMeter>657.0</gpsies:totalDescentMeter>
      <gpsies:minHeightMeter>207.0</gpsies:minHeightMeter>
      <gpsies:maxHeightMeter>399.0</gpsies:maxHeightMeter>
    </extensions>
  </metadata>
  <trk>
    <name>Лес Эштаоль - Цора (New!) on GPSies.com</name>
    <link href="http://www.gpsies.com/map.do?fileId=pirpxfppvrdaqwmw">
      <type>trackOnWeb</type>
    </link>
    <link href="http://www.gpsies.com/charts/pi/map/pirpxfppvrdaqwmw_map.png">
      <type>elevationChartUrlMap</type>
    </link>
    <link href="http://www.gpsies.com/charts/pi/mapThumb/pirpxfppvrdaqwmw_mapThumb.png">
      <type>elevationChartUrlMapThumb</type>
    </link>
    <link href="http://www.gpsies.com/charts/pi/tab/pirpxfppvrdaqwmw_tab.png">
      <type>elevationChartUrlTab</type>
    </link>
    <trkseg>
      <trkpt lat="31.81077930" lon="35.01446840">
        <ele>293.00000</ele>
        <time>2010-01-01T00:00:00Z</time>
      </trkpt>
      <trkpt lat="31.81143580" lon="35.01328820">
        <ele>288.00000</ele>
        <time>2010-01-01T00:00:47Z</time>
      </trkpt>
      <trkpt lat="31.81213780" lon="35.01027340">
        <ele>280.00000</ele>
        <time>2010-01-01T00:02:34Z</time>
      </trkpt>
      <trkpt lat="31.81245690" lon="35.00592820">
        <ele>277.00000</ele>
        <time>2010-01-01T00:05:02Z</time>
      </trkpt>
      <trkpt lat="31.81323190" lon="35.00417940">
        <ele>280.00000</ele>
        <time>2010-01-01T00:06:09Z</time>
      </trkpt>
      <trkpt lat="31.81377890" lon="35.00408290">
        <ele>283.00000</ele>
        <time>2010-01-01T00:06:31Z</time>
      </trkpt>
      <trkpt lat="31.81464000" lon="35.00418000">
        <ele>297.00000</ele>
        <time>2010-01-01T00:07:06Z</time>
      </trkpt>
      <trkpt lat="31.81470000" lon="35.00404000">
        <ele>297.00000</ele>
        <time>2010-01-01T00:07:11Z</time>
      </trkpt>
      <trkpt lat="31.81481000" lon="35.00322000">
        <ele>292.00000</ele>
        <time>2010-01-01T00:07:40Z</time>
      </trkpt>
      <trkpt lat="31.81495000" lon="35.00307000">
        <ele>293.00000</ele>
        <time>2010-01-01T00:07:47Z</time>
      </trkpt>
      <trkpt lat="31.81538000" lon="35.00276000">
        <ele>295.00000</ele>
        <time>2010-01-01T00:08:07Z</time>
      </trkpt>
      <trkpt lat="31.81585000" lon="35.00263000">
        <ele>296.00000</ele>
        <time>2010-01-01T00:08:27Z</time>
      </trkpt>
      <trkpt lat="31.81601000" lon="35.00279000">
        <ele>298.00000</ele>
        <time>2010-01-01T00:08:35Z</time>
      </trkpt>
      <trkpt lat="31.81580000" lon="35.00333000">
        <ele>306.00000</ele>
        <time>2010-01-01T00:08:55Z</time>
      </trkpt>
      <trkpt lat="31.81532000" lon="35.00425000">
        <ele>310.00000</ele>
        <time>2010-01-01T00:09:32Z</time>
      </trkpt>
      <trkpt lat="31.81515000" lon="35.00464000">
        <ele>310.00000</ele>
        <time>2010-01-01T00:09:47Z</time>
      </trkpt>
      <trkpt lat="31.81517000" lon="35.00479000">
        <ele>311.00000</ele>
        <time>2010-01-01T00:09:52Z</time>
      </trkpt>
      <trkpt lat="31.81517000" lon="35.00478000">
        <ele>311.00000</ele>
        <time>2010-01-01T00:09:52Z</time>
      </trkpt>
      <trkpt lat="31.81518000" lon="35.00485000">
        <ele>312.00000</ele>
        <time>2010-01-01T00:09:55Z</time>
      </trkpt>
      <trkpt lat="31.81512000" lon="35.00503000">
        <ele>314.00000</ele>
        <time>2010-01-01T00:10:01Z</time>
      </trkpt>
      <trkpt lat="31.81478000" lon="35.00530000">
        <ele>311.00000</ele>
        <time>2010-01-01T00:10:18Z</time>
      </trkpt>
      <trkpt lat="31.81452000" lon="35.00545000">
        <ele>309.00000</ele>
        <time>2010-01-01T00:10:29Z</time>
      </trkpt>
      <trkpt lat="31.81439000" lon="35.00574000">
        <ele>309.00000</ele>
        <time>2010-01-01T00:10:41Z</time>
      </trkpt>
      <trkpt lat="31.81449000" lon="35.00662000">
        <ele>318.00000</ele>
        <time>2010-01-01T00:11:11Z</time>
      </trkpt>
      <trkpt lat="31.81482000" lon="35.00878000">
        <ele>339.00000</ele>
        <time>2010-01-01T00:12:25Z</time>
      </trkpt>
      <trkpt lat="31.81472000" lon="35.01006000">
        <ele>346.00000</ele>
        <time>2010-01-01T00:13:09Z</time>
      </trkpt>
      <trkpt lat="31.81454000" lon="35.01090000">
        <ele>349.00000</ele>
        <time>2010-01-01T00:13:39Z</time>
      </trkpt>
      <trkpt lat="31.81442000" lon="35.01293000">
        <ele>341.00000</ele>
        <time>2010-01-01T00:14:48Z</time>
      </trkpt>
      <trkpt lat="31.81442000" lon="35.01301000">
        <ele>341.00000</ele>
        <time>2010-01-01T00:14:51Z</time>
      </trkpt>
      <trkpt lat="31.81425300" lon="35.01315950">
        <ele>339.00000</ele>
        <time>2010-01-01T00:14:59Z</time>
      </trkpt>
      <trkpt lat="31.81402500" lon="35.01345990">
        <ele>336.00000</ele>
        <time>2010-01-01T00:15:13Z</time>
      </trkpt>
      <trkpt lat="31.81394300" lon="35.01374950">
        <ele>335.00000</ele>
        <time>2010-01-01T00:15:23Z</time>
      </trkpt>
      <trkpt lat="31.81405240" lon="35.01414650">
        <ele>340.00000</ele>
        <time>2010-01-01T00:15:37Z</time>
      </trkpt>
      <trkpt lat="31.81405240" lon="35.01439860">
        <ele>342.00000</ele>
        <time>2010-01-01T00:15:46Z</time>
      </trkpt>
      <trkpt lat="31.81398860" lon="35.01461860">
        <ele>342.00000</ele>
        <time>2010-01-01T00:15:54Z</time>
      </trkpt>
      <trkpt lat="31.81368770" lon="35.01501560">
        <ele>341.00000</ele>
        <time>2010-01-01T00:16:12Z</time>
      </trkpt>
      <trkpt lat="31.81360110" lon="35.01513890">
        <ele>342.00000</ele>
        <time>2010-01-01T00:16:17Z</time>
      </trkpt>
      <trkpt lat="31.81345070" lon="35.01546620">
        <ele>344.00000</ele>
        <time>2010-01-01T00:16:30Z</time>
      </trkpt>
      <trkpt lat="31.81284890" lon="35.01627620">
        <ele>343.00000</ele>
        <time>2010-01-01T00:17:07Z</time>
      </trkpt>
      <trkpt lat="31.81273040" lon="35.01659810">
        <ele>341.00000</ele>
        <time>2010-01-01T00:17:18Z</time>
      </trkpt>
      <trkpt lat="31.81237940" lon="35.01742950">
        <ele>331.00000</ele>
        <time>2010-01-01T00:17:50Z</time>
      </trkpt>
      <trkpt lat="31.81234750" lon="35.01762270">
        <ele>330.00000</ele>
        <time>2010-01-01T00:17:57Z</time>
      </trkpt>
      <trkpt lat="31.81238850" lon="35.01813760">
        <ele>329.00000</ele>
        <time>2010-01-01T00:18:14Z</time>
      </trkpt>
      <trkpt lat="31.81233840" lon="35.01862040">
        <ele>325.00000</ele>
        <time>2010-01-01T00:18:31Z</time>
      </trkpt>
      <trkpt lat="31.81284890" lon="35.01889400">
        <ele>331.00000</ele>
        <time>2010-01-01T00:18:53Z</time>
      </trkpt>
      <trkpt lat="31.81299480" lon="35.01891010">
        <ele>332.00000</ele>
        <time>2010-01-01T00:18:59Z</time>
      </trkpt>
      <trkpt lat="31.81418910" lon="35.01884570">
        <ele>346.00000</ele>
        <time>2010-01-01T00:19:47Z</time>
      </trkpt>
      <trkpt lat="31.81537430" lon="35.01841660">
        <ele>349.00000</ele>
        <time>2010-01-01T00:20:37Z</time>
      </trkpt>
      <trkpt lat="31.81551110" lon="35.01833080">
        <ele>348.00000</ele>
        <time>2010-01-01T00:20:43Z</time>
      </trkpt>
      <trkpt lat="31.81554760" lon="35.01823420">
        <ele>348.00000</ele>
        <time>2010-01-01T00:20:47Z</time>
      </trkpt>
      <trkpt lat="31.81538350" lon="35.01777290">
        <ele>351.00000</ele>
        <time>2010-01-01T00:21:04Z</time>
      </trkpt>
      <trkpt lat="31.81513270" lon="35.01733830">
        <ele>359.00000</ele>
        <time>2010-01-01T00:21:21Z</time>
      </trkpt>
      <trkpt lat="31.81503700" lon="35.01706480">
        <ele>363.00000</ele>
        <time>2010-01-01T00:21:31Z</time>
      </trkpt>
      <trkpt lat="31.81522390" lon="35.01547150">
        <ele>364.00000</ele>
        <time>2010-01-01T00:22:26Z</time>
      </trkpt>
      <trkpt lat="31.81549290" lon="35.01456490">
        <ele>361.00000</ele>
        <time>2010-01-01T00:22:59Z</time>
      </trkpt>
      <trkpt lat="31.81570710" lon="35.01414650">
        <ele>358.00000</ele>
        <time>2010-01-01T00:23:15Z</time>
      </trkpt>
      <trkpt lat="31.81573900" lon="35.01359930">
        <ele>360.00000</ele>
        <time>2010-01-01T00:23:34Z</time>
      </trkpt>
      <trkpt lat="31.81599430" lon="35.01320240">
        <ele>360.00000</ele>
        <time>2010-01-01T00:23:51Z</time>
      </trkpt>
      <trkpt lat="31.81606270" lon="35.01308440">
        <ele>360.00000</ele>
        <time>2010-01-01T00:23:56Z</time>
      </trkpt>
      <trkpt lat="31.81614470" lon="35.01272490">
        <ele>360.00000</ele>
        <time>2010-01-01T00:24:09Z</time>
      </trkpt>
      <trkpt lat="31.81627000" lon="35.01270000">
        <ele>359.00000</ele>
        <time>2010-01-01T00:24:14Z</time>
      </trkpt>
      <trkpt lat="31.81636000" lon="35.01255000">
        <ele>359.00000</ele>
        <time>2010-01-01T00:24:20Z</time>
      </trkpt>
      <trkpt lat="31.81640000" lon="35.01253000">
        <ele>358.00000</ele>
        <time>2010-01-01T00:24:22Z</time>
      </trkpt>
      <trkpt lat="31.81655000" lon="35.01240000">
        <ele>358.00000</ele>
        <time>2010-01-01T00:24:29Z</time>
      </trkpt>
      <trkpt lat="31.81672000" lon="35.01222000">
        <ele>357.00000</ele>
        <time>2010-01-01T00:24:38Z</time>
      </trkpt>
      <trkpt lat="31.81700000" lon="35.01184000">
        <ele>359.00000</ele>
        <time>2010-01-01T00:24:55Z</time>
      </trkpt>
      <trkpt lat="31.81756000" lon="35.01132000">
        <ele>365.00000</ele>
        <time>2010-01-01T00:25:24Z</time>
      </trkpt>
      <trkpt lat="31.81806000" lon="35.01076000">
        <ele>371.00000</ele>
        <time>2010-01-01T00:25:52Z</time>
      </trkpt>
      <trkpt lat="31.81830000" lon="35.01054000">
        <ele>371.00000</ele>
        <time>2010-01-01T00:26:04Z</time>
      </trkpt>
      <trkpt lat="31.81858000" lon="35.01023000">
        <ele>367.00000</ele>
        <time>2010-01-01T00:26:19Z</time>
      </trkpt>
      <trkpt lat="31.81867000" lon="35.01008000">
        <ele>367.00000</ele>
        <time>2010-01-01T00:26:25Z</time>
      </trkpt>
      <trkpt lat="31.81872000" lon="35.00991000">
        <ele>369.00000</ele>
        <time>2010-01-01T00:26:31Z</time>
      </trkpt>
      <trkpt lat="31.81897000" lon="35.00914000">
        <ele>365.00000</ele>
        <time>2010-01-01T00:27:00Z</time>
      </trkpt>
      <trkpt lat="31.81903000" lon="35.00885000">
        <ele>363.00000</ele>
        <time>2010-01-01T00:27:10Z</time>
      </trkpt>
      <trkpt lat="31.81906000" lon="35.00878000">
        <ele>362.00000</ele>
        <time>2010-01-01T00:27:12Z</time>
      </trkpt>
      <trkpt lat="31.81924000" lon="35.00854000">
        <ele>359.00000</ele>
        <time>2010-01-01T00:27:23Z</time>
      </trkpt>
      <trkpt lat="31.81946000" lon="35.00818000">
        <ele>356.00000</ele>
        <time>2010-01-01T00:27:38Z</time>
      </trkpt>
      <trkpt lat="31.81955000" lon="35.00797000">
        <ele>356.00000</ele>
        <time>2010-01-01T00:27:46Z</time>
      </trkpt>
      <trkpt lat="31.81957000" lon="35.00788000">
        <ele>357.00000</ele>
        <time>2010-01-01T00:27:49Z</time>
      </trkpt>
      <trkpt lat="31.81959000" lon="35.00771000">
        <ele>358.00000</ele>
        <time>2010-01-01T00:27:55Z</time>
      </trkpt>
      <trkpt lat="31.81957000" lon="35.00754000">
        <ele>358.00000</ele>
        <time>2010-01-01T00:28:01Z</time>
      </trkpt>
      <trkpt lat="31.81942000" lon="35.00711000">
        <ele>356.00000</ele>
        <time>2010-01-01T00:28:17Z</time>
      </trkpt>
      <trkpt lat="31.81940000" lon="35.00697000">
        <ele>355.00000</ele>
        <time>2010-01-01T00:28:22Z</time>
      </trkpt>
      <trkpt lat="31.81941000" lon="35.00684000">
        <ele>353.00000</ele>
        <time>2010-01-01T00:28:26Z</time>
      </trkpt>
      <trkpt lat="31.81950000" lon="35.00644000">
        <ele>349.00000</ele>
        <time>2010-01-01T00:28:40Z</time>
      </trkpt>
      <trkpt lat="31.81966000" lon="35.00596000">
        <ele>345.00000</ele>
        <time>2010-01-01T00:28:58Z</time>
      </trkpt>
      <trkpt lat="31.81952000" lon="35.00585000">
        <ele>345.00000</ele>
        <time>2010-01-01T00:29:05Z</time>
      </trkpt>
      <trkpt lat="31.81951000" lon="35.00564000">
        <ele>344.00000</ele>
        <time>2010-01-01T00:29:12Z</time>
      </trkpt>
      <trkpt lat="31.81957000" lon="35.00556000">
        <ele>344.00000</ele>
        <time>2010-01-01T00:29:15Z</time>
      </trkpt>
      <trkpt lat="31.81974000" lon="35.00545000">
        <ele>344.00000</ele>
        <time>2010-01-01T00:29:23Z</time>
      </trkpt>
      <trkpt lat="31.81980000" lon="35.00543000">
        <ele>343.00000</ele>
        <time>2010-01-01T00:29:26Z</time>
      </trkpt>
      <trkpt lat="31.82000000" lon="35.00544000">
        <ele>339.00000</ele>
        <time>2010-01-01T00:29:34Z</time>
      </trkpt>
      <trkpt lat="31.82010000" lon="35.00540000">
        <ele>336.00000</ele>
        <time>2010-01-01T00:29:38Z</time>
      </trkpt>
      <trkpt lat="31.82016000" lon="35.00535000">
        <ele>334.00000</ele>
        <time>2010-01-01T00:29:41Z</time>
      </trkpt>
      <trkpt lat="31.82022000" lon="35.00535000">
        <ele>332.00000</ele>
        <time>2010-01-01T00:29:43Z</time>
      </trkpt>
      <trkpt lat="31.82032000" lon="35.00546000">
        <ele>329.00000</ele>
        <time>2010-01-01T00:29:49Z</time>
      </trkpt>
      <trkpt lat="31.82044000" lon="35.00573000">
        <ele>328.00000</ele>
        <time>2010-01-01T00:29:59Z</time>
      </trkpt>
      <trkpt lat="31.82049000" lon="35.00571000">
        <ele>326.00000</ele>
        <time>2010-01-01T00:30:01Z</time>
      </trkpt>
      <trkpt lat="31.82056000" lon="35.00548000">
        <ele>321.00000</ele>
        <time>2010-01-01T00:30:09Z</time>
      </trkpt>
      <trkpt lat="31.82058000" lon="35.00530000">
        <ele>319.00000</ele>
        <time>2010-01-01T00:30:16Z</time>
      </trkpt>
      <trkpt lat="31.82062000" lon="35.00521000">
        <ele>318.00000</ele>
        <time>2010-01-01T00:30:19Z</time>
      </trkpt>
      <trkpt lat="31.82065000" lon="35.00498000">
        <ele>318.00000</ele>
        <time>2010-01-01T00:30:27Z</time>
      </trkpt>
      <trkpt lat="31.82071000" lon="35.00480000">
        <ele>317.00000</ele>
        <time>2010-01-01T00:30:34Z</time>
      </trkpt>
      <trkpt lat="31.82077000" lon="35.00448000">
        <ele>314.00000</ele>
        <time>2010-01-01T00:30:45Z</time>
      </trkpt>
      <trkpt lat="31.82091000" lon="35.00406000">
        <ele>310.00000</ele>
        <time>2010-01-01T00:31:00Z</time>
      </trkpt>
      <trkpt lat="31.82100000" lon="35.00394000">
        <ele>309.00000</ele>
        <time>2010-01-01T00:31:06Z</time>
      </trkpt>
      <trkpt lat="31.82110000" lon="35.00383000">
        <ele>306.00000</ele>
        <time>2010-01-01T00:31:11Z</time>
      </trkpt>
      <trkpt lat="31.82118000" lon="35.00368000">
        <ele>305.00000</ele>
        <time>2010-01-01T00:31:17Z</time>
      </trkpt>
      <trkpt lat="31.82128000" lon="35.00346000">
        <ele>304.00000</ele>
        <time>2010-01-01T00:31:26Z</time>
      </trkpt>
      <trkpt lat="31.82149000" lon="35.00319000">
        <ele>300.00000</ele>
        <time>2010-01-01T00:31:38Z</time>
      </trkpt>
      <trkpt lat="31.82180000" lon="35.00267000">
        <ele>288.00000</ele>
        <time>2010-01-01T00:32:00Z</time>
      </trkpt>
      <trkpt lat="31.82198000" lon="35.00217000">
        <ele>284.00000</ele>
        <time>2010-01-01T00:32:18Z</time>
      </trkpt>
      <trkpt lat="31.82206000" lon="35.00187000">
        <ele>283.00000</ele>
        <time>2010-01-01T00:32:29Z</time>
      </trkpt>
      <trkpt lat="31.82215000" lon="35.00172000">
        <ele>281.00000</ele>
        <time>2010-01-01T00:32:35Z</time>
      </trkpt>
      <trkpt lat="31.82236000" lon="35.00161000">
        <ele>277.00000</ele>
        <time>2010-01-01T00:32:44Z</time>
      </trkpt>
      <trkpt lat="31.82285000" lon="35.00128000">
        <ele>269.00000</ele>
        <time>2010-01-01T00:33:07Z</time>
      </trkpt>
      <trkpt lat="31.82318000" lon="35.00110000">
        <ele>264.00000</ele>
        <time>2010-01-01T00:33:21Z</time>
      </trkpt>
      <trkpt lat="31.82343000" lon="35.00093000">
        <ele>260.00000</ele>
        <time>2010-01-01T00:33:33Z</time>
      </trkpt>
      <trkpt lat="31.82351000" lon="35.00082000">
        <ele>257.00000</ele>
        <time>2010-01-01T00:33:38Z</time>
      </trkpt>
      <trkpt lat="31.82364000" lon="35.00060000">
        <ele>251.00000</ele>
        <time>2010-01-01T00:33:47Z</time>
      </trkpt>
      <trkpt lat="31.82369000" lon="35.00047000">
        <ele>248.00000</ele>
        <time>2010-01-01T00:33:52Z</time>
      </trkpt>
      <trkpt lat="31.82371000" lon="35.00032000">
        <ele>246.00000</ele>
        <time>2010-01-01T00:33:57Z</time>
      </trkpt>
      <trkpt lat="31.82372000" lon="35.00012000">
        <ele>245.00000</ele>
        <time>2010-01-01T00:34:04Z</time>
      </trkpt>
      <trkpt lat="31.82384000" lon="34.99998000">
        <ele>242.00000</ele>
        <time>2010-01-01T00:34:11Z</time>
      </trkpt>
      <trkpt lat="31.82392000" lon="35.00006000">
        <ele>240.00000</ele>
        <time>2010-01-01T00:34:15Z</time>
      </trkpt>
      <trkpt lat="31.82412000" lon="35.00035000">
        <ele>239.00000</ele>
        <time>2010-01-01T00:34:27Z</time>
      </trkpt>
      <trkpt lat="31.82420000" lon="35.00043000">
        <ele>238.00000</ele>
        <time>2010-01-01T00:34:32Z</time>
      </trkpt>
      <trkpt lat="31.82436000" lon="35.00049000">
        <ele>236.00000</ele>
        <time>2010-01-01T00:34:38Z</time>
      </trkpt>
      <trkpt lat="31.82397000" lon="34.99953000">
        <ele>237.00000</ele>
        <time>2010-01-01T00:35:15Z</time>
      </trkpt>
      <trkpt lat="31.82351000" lon="34.99879000">
        <ele>242.00000</ele>
        <time>2010-01-01T00:35:46Z</time>
      </trkpt>
      <trkpt lat="31.82352000" lon="34.99874000">
        <ele>242.00000</ele>
        <time>2010-01-01T00:35:47Z</time>
      </trkpt>
      <trkpt lat="31.82362000" lon="34.99824000">
        <ele>238.00000</ele>
        <time>2010-01-01T00:36:05Z</time>
      </trkpt>
      <trkpt lat="31.82344000" lon="34.99788000">
        <ele>240.00000</ele>
        <time>2010-01-01T00:36:19Z</time>
      </trkpt>
      <trkpt lat="31.82331000" lon="34.99752000">
        <ele>240.00000</ele>
        <time>2010-01-01T00:36:32Z</time>
      </trkpt>
      <trkpt lat="31.82319000" lon="34.99695000">
        <ele>240.00000</ele>
        <time>2010-01-01T00:36:52Z</time>
      </trkpt>
      <trkpt lat="31.82325000" lon="34.99652000">
        <ele>237.00000</ele>
        <time>2010-01-01T00:37:07Z</time>
      </trkpt>
      <trkpt lat="31.82350000" lon="34.99583000">
        <ele>234.00000</ele>
        <time>2010-01-01T00:37:33Z</time>
      </trkpt>
      <trkpt lat="31.82283000" lon="34.99568000">
        <ele>234.00000</ele>
        <time>2010-01-01T00:38:00Z</time>
      </trkpt>
      <trkpt lat="31.82247000" lon="34.99547000">
        <ele>229.00000</ele>
        <time>2010-01-01T00:38:16Z</time>
      </trkpt>
      <trkpt lat="31.82214000" lon="34.99551000">
        <ele>228.00000</ele>
        <time>2010-01-01T00:38:29Z</time>
      </trkpt>
      <trkpt lat="31.82160000" lon="34.99613000">
        <ele>233.00000</ele>
        <time>2010-01-01T00:39:00Z</time>
      </trkpt>
      <trkpt lat="31.82129000" lon="34.99639000">
        <ele>233.00000</ele>
        <time>2010-01-01T00:39:15Z</time>
      </trkpt>
      <trkpt lat="31.82113000" lon="34.99645000">
        <ele>233.00000</ele>
        <time>2010-01-01T00:39:22Z</time>
      </trkpt>
      <trkpt lat="31.82084000" lon="34.99647000">
        <ele>234.00000</ele>
        <time>2010-01-01T00:39:33Z</time>
      </trkpt>
      <trkpt lat="31.81996000" lon="34.99629000">
        <ele>234.00000</ele>
        <time>2010-01-01T00:40:09Z</time>
      </trkpt>
      <trkpt lat="31.81952000" lon="34.99626000">
        <ele>237.00000</ele>
        <time>2010-01-01T00:40:27Z</time>
      </trkpt>
      <trkpt lat="31.81922000" lon="34.99652000">
        <ele>239.00000</ele>
        <time>2010-01-01T00:40:42Z</time>
      </trkpt>
      <trkpt lat="31.81917000" lon="34.99657000">
        <ele>239.00000</ele>
        <time>2010-01-01T00:40:44Z</time>
      </trkpt>
      <trkpt lat="31.81914000" lon="34.99645000">
        <ele>239.00000</ele>
        <time>2010-01-01T00:40:48Z</time>
      </trkpt>
      <trkpt lat="31.81889000" lon="34.99600000">
        <ele>237.00000</ele>
        <time>2010-01-01T00:41:07Z</time>
      </trkpt>
      <trkpt lat="31.81883000" lon="34.99583000">
        <ele>237.00000</ele>
        <time>2010-01-01T00:41:13Z</time>
      </trkpt>
      <trkpt lat="31.81880000" lon="34.99569000">
        <ele>239.00000</ele>
        <time>2010-01-01T00:41:18Z</time>
      </trkpt>
      <trkpt lat="31.81871000" lon="34.99553000">
        <ele>240.00000</ele>
        <time>2010-01-01T00:41:24Z</time>
      </trkpt>
      <trkpt lat="31.81871000" lon="34.99536000">
        <ele>243.00000</ele>
        <time>2010-01-01T00:41:30Z</time>
      </trkpt>
      <trkpt lat="31.81874000" lon="34.99524000">
        <ele>245.00000</ele>
        <time>2010-01-01T00:41:34Z</time>
      </trkpt>
      <trkpt lat="31.81885000" lon="34.99497000">
        <ele>249.00000</ele>
        <time>2010-01-01T00:41:45Z</time>
      </trkpt>
      <trkpt lat="31.81885000" lon="34.99485000">
        <ele>251.00000</ele>
        <time>2010-01-01T00:41:49Z</time>
      </trkpt>
      <trkpt lat="31.81882000" lon="34.99477000">
        <ele>252.00000</ele>
        <time>2010-01-01T00:41:52Z</time>
      </trkpt>
      <trkpt lat="31.81878000" lon="34.99470000">
        <ele>253.00000</ele>
        <time>2010-01-01T00:41:55Z</time>
      </trkpt>
      <trkpt lat="31.81866000" lon="34.99460000">
        <ele>256.00000</ele>
        <time>2010-01-01T00:42:00Z</time>
      </trkpt>
      <trkpt lat="31.81853000" lon="34.99456000">
        <ele>258.00000</ele>
        <time>2010-01-01T00:42:06Z</time>
      </trkpt>
      <trkpt lat="31.81835000" lon="34.99454000">
        <ele>260.00000</ele>
        <time>2010-01-01T00:42:13Z</time>
      </trkpt>
      <trkpt lat="31.81828000" lon="34.99452000">
        <ele>261.00000</ele>
        <time>2010-01-01T00:42:16Z</time>
      </trkpt>
      <trkpt lat="31.81814000" lon="34.99450000">
        <ele>263.00000</ele>
        <time>2010-01-01T00:42:22Z</time>
      </trkpt>
      <trkpt lat="31.81807000" lon="34.99447000">
        <ele>264.00000</ele>
        <time>2010-01-01T00:42:25Z</time>
      </trkpt>
      <trkpt lat="31.81779000" lon="34.99441000">
        <ele>265.00000</ele>
        <time>2010-01-01T00:42:36Z</time>
      </trkpt>
      <trkpt lat="31.81762000" lon="34.99435000">
        <ele>265.00000</ele>
        <time>2010-01-01T00:42:43Z</time>
      </trkpt>
      <trkpt lat="31.81748000" lon="34.99432000">
        <ele>266.00000</ele>
        <time>2010-01-01T00:42:49Z</time>
      </trkpt>
      <trkpt lat="31.81728000" lon="34.99421000">
        <ele>265.00000</ele>
        <time>2010-01-01T00:42:58Z</time>
      </trkpt>
      <trkpt lat="31.81721000" lon="34.99412000">
        <ele>266.00000</ele>
        <time>2010-01-01T00:43:02Z</time>
      </trkpt>
      <trkpt lat="31.81709000" lon="34.99386000">
        <ele>268.00000</ele>
        <time>2010-01-01T00:43:12Z</time>
      </trkpt>
      <trkpt lat="31.81701000" lon="34.99358000">
        <ele>270.00000</ele>
        <time>2010-01-01T00:43:22Z</time>
      </trkpt>
      <trkpt lat="31.81691000" lon="34.99313000">
        <ele>273.00000</ele>
        <time>2010-01-01T00:43:38Z</time>
      </trkpt>
      <trkpt lat="31.81682000" lon="34.99294000">
        <ele>274.00000</ele>
        <time>2010-01-01T00:43:45Z</time>
      </trkpt>
      <trkpt lat="31.81674000" lon="34.99288000">
        <ele>273.00000</ele>
        <time>2010-01-01T00:43:49Z</time>
      </trkpt>
      <trkpt lat="31.81663000" lon="34.99287000">
        <ele>272.00000</ele>
        <time>2010-01-01T00:43:53Z</time>
      </trkpt>
      <trkpt lat="31.81648000" lon="34.99291000">
        <ele>270.00000</ele>
        <time>2010-01-01T00:43:59Z</time>
      </trkpt>
      <trkpt lat="31.81632000" lon="34.99297000">
        <ele>270.00000</ele>
        <time>2010-01-01T00:44:06Z</time>
      </trkpt>
      <trkpt lat="31.81622000" lon="34.99307000">
        <ele>269.00000</ele>
        <time>2010-01-01T00:44:11Z</time>
      </trkpt>
      <trkpt lat="31.81612000" lon="34.99311000">
        <ele>269.00000</ele>
        <time>2010-01-01T00:44:16Z</time>
      </trkpt>
      <trkpt lat="31.81605000" lon="34.99311000">
        <ele>269.00000</ele>
        <time>2010-01-01T00:44:18Z</time>
      </trkpt>
      <trkpt lat="31.81598000" lon="34.99307000">
        <ele>270.00000</ele>
        <time>2010-01-01T00:44:22Z</time>
      </trkpt>
      <trkpt lat="31.81594000" lon="34.99300000">
        <ele>272.00000</ele>
        <time>2010-01-01T00:44:24Z</time>
      </trkpt>
      <trkpt lat="31.81592000" lon="34.99288000">
        <ele>275.00000</ele>
        <time>2010-01-01T00:44:29Z</time>
      </trkpt>
      <trkpt lat="31.81597000" lon="34.99277000">
        <ele>277.00000</ele>
        <time>2010-01-01T00:44:33Z</time>
      </trkpt>
      <trkpt lat="31.81605000" lon="34.99262000">
        <ele>279.00000</ele>
        <time>2010-01-01T00:44:39Z</time>
      </trkpt>
      <trkpt lat="31.81637000" lon="34.99214000">
        <ele>283.00000</ele>
        <time>2010-01-01T00:45:00Z</time>
      </trkpt>
      <trkpt lat="31.81655000" lon="34.99171000">
        <ele>287.00000</ele>
        <time>2010-01-01T00:45:16Z</time>
      </trkpt>
      <trkpt lat="31.81663000" lon="34.99113000">
        <ele>296.00000</ele>
        <time>2010-01-01T00:45:36Z</time>
      </trkpt>
      <trkpt lat="31.81668000" lon="34.99107000">
        <ele>298.00000</ele>
        <time>2010-01-01T00:45:39Z</time>
      </trkpt>
      <trkpt lat="31.81674000" lon="34.99103000">
        <ele>299.00000</ele>
        <time>2010-01-01T00:45:42Z</time>
      </trkpt>
      <trkpt lat="31.81681000" lon="34.99103000">
        <ele>299.00000</ele>
        <time>2010-01-01T00:45:44Z</time>
      </trkpt>
      <trkpt lat="31.81694000" lon="34.99111000">
        <ele>298.00000</ele>
        <time>2010-01-01T00:45:50Z</time>
      </trkpt>
      <trkpt lat="31.81725000" lon="34.99141000">
        <ele>297.00000</ele>
        <time>2010-01-01T00:46:06Z</time>
      </trkpt>
      <trkpt lat="31.81760000" lon="34.99184000">
        <ele>298.00000</ele>
        <time>2010-01-01T00:46:27Z</time>
      </trkpt>
      <trkpt lat="31.81781000" lon="34.99201000">
        <ele>299.00000</ele>
        <time>2010-01-01T00:46:37Z</time>
      </trkpt>
      <trkpt lat="31.81788000" lon="34.99204000">
        <ele>300.00000</ele>
        <time>2010-01-01T00:46:40Z</time>
      </trkpt>
      <trkpt lat="31.81795000" lon="34.99204000">
        <ele>300.00000</ele>
        <time>2010-01-01T00:46:43Z</time>
      </trkpt>
      <trkpt lat="31.81806000" lon="34.99202000">
        <ele>301.00000</ele>
        <time>2010-01-01T00:46:47Z</time>
      </trkpt>
      <trkpt lat="31.81811000" lon="34.99197000">
        <ele>301.00000</ele>
        <time>2010-01-01T00:46:50Z</time>
      </trkpt>
      <trkpt lat="31.81821000" lon="34.99181000">
        <ele>301.00000</ele>
        <time>2010-01-01T00:46:56Z</time>
      </trkpt>
      <trkpt lat="31.81818000" lon="34.99178000">
        <ele>301.00000</ele>
        <time>2010-01-01T00:46:58Z</time>
      </trkpt>
      <trkpt lat="31.81818000" lon="34.99177000">
        <ele>301.00000</ele>
        <time>2010-01-01T00:46:58Z</time>
      </trkpt>
      <trkpt lat="31.81805000" lon="34.99160000">
        <ele>303.00000</ele>
        <time>2010-01-01T00:47:06Z</time>
      </trkpt>
      <trkpt lat="31.81790000" lon="34.99131000">
        <ele>305.00000</ele>
        <time>2010-01-01T00:47:18Z</time>
      </trkpt>
      <trkpt lat="31.81769000" lon="34.99078000">
        <ele>306.00000</ele>
        <time>2010-01-01T00:47:37Z</time>
      </trkpt>
      <trkpt lat="31.81743000" lon="34.99028000">
        <ele>307.00000</ele>
        <time>2010-01-01T00:47:57Z</time>
      </trkpt>
      <trkpt lat="31.81735000" lon="34.99005000">
        <ele>310.00000</ele>
        <time>2010-01-01T00:48:06Z</time>
      </trkpt>
      <trkpt lat="31.81749000" lon="34.98961000">
        <ele>311.00000</ele>
        <time>2010-01-01T00:48:22Z</time>
      </trkpt>
      <trkpt lat="31.81746000" lon="34.98933000">
        <ele>311.00000</ele>
        <time>2010-01-01T00:48:31Z</time>
      </trkpt>
      <trkpt lat="31.81735000" lon="34.98898000">
        <ele>313.00000</ele>
        <time>2010-01-01T00:48:44Z</time>
      </trkpt>
      <trkpt lat="31.81614000" lon="34.98827000">
        <ele>317.00000</ele>
        <time>2010-01-01T00:49:38Z</time>
      </trkpt>
      <trkpt lat="31.81601000" lon="34.98810000">
        <ele>318.00000</ele>
        <time>2010-01-01T00:49:46Z</time>
      </trkpt>
      <trkpt lat="31.81593000" lon="34.98784000">
        <ele>319.00000</ele>
        <time>2010-01-01T00:49:55Z</time>
      </trkpt>
      <trkpt lat="31.81593000" lon="34.98783000">
        <ele>319.00000</ele>
        <time>2010-01-01T00:49:56Z</time>
      </trkpt>
      <trkpt lat="31.81595000" lon="34.98756000">
        <ele>318.00000</ele>
        <time>2010-01-01T00:50:05Z</time>
      </trkpt>
      <trkpt lat="31.81611000" lon="34.98623000">
        <ele>317.00000</ele>
        <time>2010-01-01T00:50:51Z</time>
      </trkpt>
      <trkpt lat="31.81614000" lon="34.98527000">
        <ele>315.00000</ele>
        <time>2010-01-01T00:51:23Z</time>
      </trkpt>
      <trkpt lat="31.81613000" lon="34.98526000">
        <ele>315.00000</ele>
        <time>2010-01-01T00:51:24Z</time>
      </trkpt>
      <trkpt lat="31.81615000" lon="34.98494000">
        <ele>315.00000</ele>
        <time>2010-01-01T00:51:35Z</time>
      </trkpt>
      <trkpt lat="31.81613000" lon="34.98426000">
        <ele>317.00000</ele>
        <time>2010-01-01T00:51:58Z</time>
      </trkpt>
      <trkpt lat="31.81608000" lon="34.98392000">
        <ele>317.00000</ele>
        <time>2010-01-01T00:52:10Z</time>
      </trkpt>
      <trkpt lat="31.81608540" lon="34.98374100">
        <ele>318.00000</ele>
        <time>2010-01-01T00:52:16Z</time>
      </trkpt>
      <trkpt lat="31.81589400" lon="34.98381610">
        <ele>313.00000</ele>
        <time>2010-01-01T00:52:24Z</time>
      </trkpt>
      <trkpt lat="31.81571170" lon="34.98373030">
        <ele>309.00000</ele>
        <time>2010-01-01T00:52:32Z</time>
      </trkpt>
      <trkpt lat="31.81546550" lon="34.98339770">
        <ele>307.00000</ele>
        <time>2010-01-01T00:52:47Z</time>
      </trkpt>
      <trkpt lat="31.81532880" lon="34.98304360">
        <ele>304.00000</ele>
        <time>2010-01-01T00:53:00Z</time>
      </trkpt>
      <trkpt lat="31.81533000" lon="34.98304000">
        <ele>304.00000</ele>
        <time>2010-01-01T00:53:00Z</time>
      </trkpt>
      <trkpt lat="31.81516000" lon="34.98276000">
        <ele>300.00000</ele>
        <time>2010-01-01T00:53:12Z</time>
      </trkpt>
      <trkpt lat="31.81500000" lon="34.98242000">
        <ele>295.00000</ele>
        <time>2010-01-01T00:53:25Z</time>
      </trkpt>
      <trkpt lat="31.81499000" lon="34.98234000">
        <ele>294.00000</ele>
        <time>2010-01-01T00:53:28Z</time>
      </trkpt>
      <trkpt lat="31.81491000" lon="34.98215000">
        <ele>291.00000</ele>
        <time>2010-01-01T00:53:35Z</time>
      </trkpt>
      <trkpt lat="31.81483000" lon="34.98201000">
        <ele>288.00000</ele>
        <time>2010-01-01T00:53:41Z</time>
      </trkpt>
      <trkpt lat="31.81479000" lon="34.98189000">
        <ele>287.00000</ele>
        <time>2010-01-01T00:53:45Z</time>
      </trkpt>
      <trkpt lat="31.81459000" lon="34.98149000">
        <ele>283.00000</ele>
        <time>2010-01-01T00:54:01Z</time>
      </trkpt>
      <trkpt lat="31.81455000" lon="34.98142000">
        <ele>283.00000</ele>
        <time>2010-01-01T00:54:04Z</time>
      </trkpt>
      <trkpt lat="31.81452000" lon="34.98141000">
        <ele>282.00000</ele>
        <time>2010-01-01T00:54:05Z</time>
      </trkpt>
      <trkpt lat="31.81450000" lon="34.98138000">
        <ele>282.00000</ele>
        <time>2010-01-01T00:54:06Z</time>
      </trkpt>
      <trkpt lat="31.81447000" lon="34.98130000">
        <ele>282.00000</ele>
        <time>2010-01-01T00:54:09Z</time>
      </trkpt>
      <trkpt lat="31.81431000" lon="34.98096000">
        <ele>280.00000</ele>
        <time>2010-01-01T00:54:23Z</time>
      </trkpt>
      <trkpt lat="31.81427000" lon="34.98084000">
        <ele>279.00000</ele>
        <time>2010-01-01T00:54:27Z</time>
      </trkpt>
      <trkpt lat="31.81405000" lon="34.98046000">
        <ele>281.00000</ele>
        <time>2010-01-01T00:54:43Z</time>
      </trkpt>
      <trkpt lat="31.81377000" lon="34.97981000">
        <ele>281.00000</ele>
        <time>2010-01-01T00:55:07Z</time>
      </trkpt>
      <trkpt lat="31.81338000" lon="34.97900000">
        <ele>278.00000</ele>
        <time>2010-01-01T00:55:39Z</time>
      </trkpt>
      <trkpt lat="31.81328000" lon="34.97873000">
        <ele>276.00000</ele>
        <time>2010-01-01T00:55:49Z</time>
      </trkpt>
      <trkpt lat="31.81294000" lon="34.97818000">
        <ele>268.00000</ele>
        <time>2010-01-01T00:56:12Z</time>
      </trkpt>
      <trkpt lat="31.81256000" lon="34.97746000">
        <ele>264.00000</ele>
        <time>2010-01-01T00:56:41Z</time>
      </trkpt>
      <trkpt lat="31.81234000" lon="34.97712000">
        <ele>262.00000</ele>
        <time>2010-01-01T00:56:56Z</time>
      </trkpt>
      <trkpt lat="31.81210000" lon="34.97664000">
        <ele>259.00000</ele>
        <time>2010-01-01T00:57:14Z</time>
      </trkpt>
      <trkpt lat="31.81193000" lon="34.97623000">
        <ele>255.00000</ele>
        <time>2010-01-01T00:57:30Z</time>
      </trkpt>
      <trkpt lat="31.81181000" lon="34.97544000">
        <ele>245.00000</ele>
        <time>2010-01-01T00:57:57Z</time>
      </trkpt>
      <trkpt lat="31.81176000" lon="34.97531000">
        <ele>243.00000</ele>
        <time>2010-01-01T00:58:02Z</time>
      </trkpt>
      <trkpt lat="31.81175000" lon="34.97531000">
        <ele>243.00000</ele>
        <time>2010-01-01T00:58:03Z</time>
      </trkpt>
      <trkpt lat="31.81174000" lon="34.97527000">
        <ele>243.00000</ele>
        <time>2010-01-01T00:58:04Z</time>
      </trkpt>
      <trkpt lat="31.81160000" lon="34.97522000">
        <ele>242.00000</ele>
        <time>2010-01-01T00:58:10Z</time>
      </trkpt>
      <trkpt lat="31.81139000" lon="34.97509000">
        <ele>241.00000</ele>
        <time>2010-01-01T00:58:19Z</time>
      </trkpt>
      <trkpt lat="31.81065000" lon="34.97469000">
        <ele>231.00000</ele>
        <time>2010-01-01T00:58:52Z</time>
      </trkpt>
      <trkpt lat="31.81046000" lon="34.97457000">
        <ele>229.00000</ele>
        <time>2010-01-01T00:59:01Z</time>
      </trkpt>
      <trkpt lat="31.81018000" lon="34.97435000">
        <ele>227.00000</ele>
        <time>2010-01-01T00:59:14Z</time>
      </trkpt>
      <trkpt lat="31.80991000" lon="34.97410000">
        <ele>226.00000</ele>
        <time>2010-01-01T00:59:28Z</time>
      </trkpt>
      <trkpt lat="31.80978000" lon="34.97399000">
        <ele>226.00000</ele>
        <time>2010-01-01T00:59:34Z</time>
      </trkpt>
      <trkpt lat="31.80977000" lon="34.97399000">
        <ele>226.00000</ele>
        <time>2010-01-01T00:59:35Z</time>
      </trkpt>
      <trkpt lat="31.80973000" lon="34.97393000">
        <ele>226.00000</ele>
        <time>2010-01-01T00:59:37Z</time>
      </trkpt>
      <trkpt lat="31.80971000" lon="34.97371000">
        <ele>225.00000</ele>
        <time>2010-01-01T00:59:45Z</time>
      </trkpt>
      <trkpt lat="31.80955000" lon="34.97363000">
        <ele>223.00000</ele>
        <time>2010-01-01T00:59:52Z</time>
      </trkpt>
      <trkpt lat="31.80922000" lon="34.97353000">
        <ele>223.00000</ele>
        <time>2010-01-01T01:00:05Z</time>
      </trkpt>
      <trkpt lat="31.80914000" lon="34.97347000">
        <ele>223.00000</ele>
        <time>2010-01-01T01:00:09Z</time>
      </trkpt>
      <trkpt lat="31.80890000" lon="34.97292000">
        <ele>222.00000</ele>
        <time>2010-01-01T01:00:30Z</time>
      </trkpt>
      <trkpt lat="31.80889000" lon="34.97293000">
        <ele>222.00000</ele>
        <time>2010-01-01T01:00:31Z</time>
      </trkpt>
      <trkpt lat="31.80819910" lon="34.97211090">
        <ele>216.00000</ele>
        <time>2010-01-01T01:01:10Z</time>
      </trkpt>
      <trkpt lat="31.80748790" lon="34.97168180">
        <ele>211.00000</ele>
        <time>2010-01-01T01:01:42Z</time>
      </trkpt>
      <trkpt lat="31.80664000" lon="34.97142430">
        <ele>209.00000</ele>
        <time>2010-01-01T01:02:17Z</time>
      </trkpt>
      <trkpt lat="31.80573730" lon="34.97138140">
        <ele>207.00000</ele>
        <time>2010-01-01T01:02:53Z</time>
      </trkpt>
      <trkpt lat="31.80571000" lon="34.97203580">
        <ele>210.00000</ele>
        <time>2010-01-01T01:03:15Z</time>
      </trkpt>
      <trkpt lat="31.80629350" lon="34.97385970">
        <ele>226.00000</ele>
        <time>2010-01-01T01:04:22Z</time>
      </trkpt>
      <trkpt lat="31.80725090" lon="34.97332330">
        <ele>223.00000</ele>
        <time>2010-01-01T01:05:04Z</time>
      </trkpt>
      <trkpt lat="31.80772500" lon="34.97341990">
        <ele>224.00000</ele>
        <time>2010-01-01T01:05:23Z</time>
      </trkpt>
      <trkpt lat="31.80810790" lon="34.97362370">
        <ele>227.00000</ele>
        <time>2010-01-01T01:05:40Z</time>
      </trkpt>
      <trkpt lat="31.80902000" lon="34.97477000">
        <ele>230.00000</ele>
        <time>2010-01-01T01:06:34Z</time>
      </trkpt>
      <trkpt lat="31.80900000" lon="34.97532000">
        <ele>233.00000</ele>
        <time>2010-01-01T01:06:52Z</time>
      </trkpt>
      <trkpt lat="31.80923000" lon="34.97589000">
        <ele>235.00000</ele>
        <time>2010-01-01T01:07:14Z</time>
      </trkpt>
      <trkpt lat="31.80923000" lon="34.97588000">
        <ele>235.00000</ele>
        <time>2010-01-01T01:07:14Z</time>
      </trkpt>
      <trkpt lat="31.80952000" lon="34.97661000">
        <ele>237.00000</ele>
        <time>2010-01-01T01:07:42Z</time>
      </trkpt>
      <trkpt lat="31.80957000" lon="34.97709000">
        <ele>241.00000</ele>
        <time>2010-01-01T01:07:58Z</time>
      </trkpt>
      <trkpt lat="31.80984000" lon="34.97750000">
        <ele>242.00000</ele>
        <time>2010-01-01T01:08:16Z</time>
      </trkpt>
      <trkpt lat="31.80998000" lon="34.97795000">
        <ele>245.00000</ele>
        <time>2010-01-01T01:08:32Z</time>
      </trkpt>
      <trkpt lat="31.80999000" lon="34.97821000">
        <ele>246.00000</ele>
        <time>2010-01-01T01:08:41Z</time>
      </trkpt>
      <trkpt lat="31.80989000" lon="34.97849000">
        <ele>248.00000</ele>
        <time>2010-01-01T01:08:51Z</time>
      </trkpt>
      <trkpt lat="31.80989000" lon="34.97866000">
        <ele>248.00000</ele>
        <time>2010-01-01T01:08:57Z</time>
      </trkpt>
      <trkpt lat="31.80992000" lon="34.97871000">
        <ele>248.00000</ele>
        <time>2010-01-01T01:08:59Z</time>
      </trkpt>
      <trkpt lat="31.80992000" lon="34.97870000">
        <ele>248.00000</ele>
        <time>2010-01-01T01:08:59Z</time>
      </trkpt>
      <trkpt lat="31.80997000" lon="34.97877000">
        <ele>248.00000</ele>
        <time>2010-01-01T01:09:03Z</time>
      </trkpt>
      <trkpt lat="31.80979000" lon="34.97890000">
        <ele>252.00000</ele>
        <time>2010-01-01T01:09:11Z</time>
      </trkpt>
      <trkpt lat="31.80970000" lon="34.97903000">
        <ele>254.00000</ele>
        <time>2010-01-01T01:09:17Z</time>
      </trkpt>
      <trkpt lat="31.80962000" lon="34.97920000">
        <ele>256.00000</ele>
        <time>2010-01-01T01:09:23Z</time>
      </trkpt>
      <trkpt lat="31.80959000" lon="34.97930000">
        <ele>258.00000</ele>
        <time>2010-01-01T01:09:27Z</time>
      </trkpt>
      <trkpt lat="31.80954000" lon="34.97940000">
        <ele>259.00000</ele>
        <time>2010-01-01T01:09:31Z</time>
      </trkpt>
      <trkpt lat="31.80962000" lon="34.97948000">
        <ele>259.00000</ele>
        <time>2010-01-01T01:09:35Z</time>
      </trkpt>
      <trkpt lat="31.80983000" lon="34.97967000">
        <ele>261.00000</ele>
        <time>2010-01-01T01:09:46Z</time>
      </trkpt>
      <trkpt lat="31.80990000" lon="34.97980000">
        <ele>262.00000</ele>
        <time>2010-01-01T01:09:51Z</time>
      </trkpt>
      <trkpt lat="31.80991000" lon="34.97988000">
        <ele>264.00000</ele>
        <time>2010-01-01T01:09:54Z</time>
      </trkpt>
      <trkpt lat="31.80990000" lon="34.97996000">
        <ele>265.00000</ele>
        <time>2010-01-01T01:09:56Z</time>
      </trkpt>
      <trkpt lat="31.80985000" lon="34.98002000">
        <ele>266.00000</ele>
        <time>2010-01-01T01:09:59Z</time>
      </trkpt>
      <trkpt lat="31.80978000" lon="34.98004000">
        <ele>268.00000</ele>
        <time>2010-01-01T01:10:02Z</time>
      </trkpt>
      <trkpt lat="31.80965000" lon="34.98003000">
        <ele>269.00000</ele>
        <time>2010-01-01T01:10:07Z</time>
      </trkpt>
      <trkpt lat="31.80958000" lon="34.98004000">
        <ele>270.00000</ele>
        <time>2010-01-01T01:10:10Z</time>
      </trkpt>
      <trkpt lat="31.80952000" lon="34.98009000">
        <ele>271.00000</ele>
        <time>2010-01-01T01:10:13Z</time>
      </trkpt>
      <trkpt lat="31.80949000" lon="34.98016000">
        <ele>272.00000</ele>
        <time>2010-01-01T01:10:16Z</time>
      </trkpt>
      <trkpt lat="31.80948000" lon="34.98030000">
        <ele>275.00000</ele>
        <time>2010-01-01T01:10:21Z</time>
      </trkpt>
      <trkpt lat="31.80949000" lon="34.98043000">
        <ele>278.00000</ele>
        <time>2010-01-01T01:10:25Z</time>
      </trkpt>
      <trkpt lat="31.80959000" lon="34.98078000">
        <ele>284.00000</ele>
        <time>2010-01-01T01:10:38Z</time>
      </trkpt>
      <trkpt lat="31.80959000" lon="34.98087000">
        <ele>285.00000</ele>
        <time>2010-01-01T01:10:41Z</time>
      </trkpt>
      <trkpt lat="31.80955000" lon="34.98095000">
        <ele>286.00000</ele>
        <time>2010-01-01T01:10:44Z</time>
      </trkpt>
      <trkpt lat="31.80948000" lon="34.98097000">
        <ele>287.00000</ele>
        <time>2010-01-01T01:10:47Z</time>
      </trkpt>
      <trkpt lat="31.80944000" lon="34.98095000">
        <ele>287.00000</ele>
        <time>2010-01-01T01:10:48Z</time>
      </trkpt>
      <trkpt lat="31.80939000" lon="34.98091000">
        <ele>287.00000</ele>
        <time>2010-01-01T01:10:51Z</time>
      </trkpt>
      <trkpt lat="31.80925000" lon="34.98075000">
        <ele>286.00000</ele>
        <time>2010-01-01T01:10:59Z</time>
      </trkpt>
      <trkpt lat="31.80916000" lon="34.98070000">
        <ele>285.00000</ele>
        <time>2010-01-01T01:11:03Z</time>
      </trkpt>
      <trkpt lat="31.80911000" lon="34.98069000">
        <ele>285.00000</ele>
        <time>2010-01-01T01:11:05Z</time>
      </trkpt>
      <trkpt lat="31.80905000" lon="34.98071000">
        <ele>286.00000</ele>
        <time>2010-01-01T01:11:07Z</time>
      </trkpt>
      <trkpt lat="31.80901000" lon="34.98075000">
        <ele>287.00000</ele>
        <time>2010-01-01T01:11:09Z</time>
      </trkpt>
      <trkpt lat="31.80892000" lon="34.98089000">
        <ele>289.00000</ele>
        <time>2010-01-01T01:11:15Z</time>
      </trkpt>
      <trkpt lat="31.80885000" lon="34.98106000">
        <ele>291.00000</ele>
        <time>2010-01-01T01:11:22Z</time>
      </trkpt>
      <trkpt lat="31.80878000" lon="34.98116000">
        <ele>292.00000</ele>
        <time>2010-01-01T01:11:26Z</time>
      </trkpt>
      <trkpt lat="31.80864000" lon="34.98123000">
        <ele>294.00000</ele>
        <time>2010-01-01T01:11:32Z</time>
      </trkpt>
      <trkpt lat="31.80860000" lon="34.98124000">
        <ele>295.00000</ele>
        <time>2010-01-01T01:11:34Z</time>
      </trkpt>
      <trkpt lat="31.80864000" lon="34.98142000">
        <ele>294.00000</ele>
        <time>2010-01-01T01:11:40Z</time>
      </trkpt>
      <trkpt lat="31.80790000" lon="34.98393000">
        <ele>296.00000</ele>
        <time>2010-01-01T01:13:10Z</time>
      </trkpt>
      <trkpt lat="31.80785000" lon="34.98431000">
        <ele>293.00000</ele>
        <time>2010-01-01T01:13:24Z</time>
      </trkpt>
      <trkpt lat="31.80781000" lon="34.98441000">
        <ele>293.00000</ele>
        <time>2010-01-01T01:13:27Z</time>
      </trkpt>
      <trkpt lat="31.80780000" lon="34.98442000">
        <ele>293.00000</ele>
        <time>2010-01-01T01:13:28Z</time>
      </trkpt>
      <trkpt lat="31.80715060" lon="34.98432040">
        <ele>300.00000</ele>
        <time>2010-01-01T01:13:54Z</time>
      </trkpt>
      <trkpt lat="31.80707760" lon="34.98501770">
        <ele>303.00000</ele>
        <time>2010-01-01T01:14:18Z</time>
      </trkpt>
      <trkpt lat="31.80695000" lon="34.98544690">
        <ele>305.00000</ele>
        <time>2010-01-01T01:14:33Z</time>
      </trkpt>
      <trkpt lat="31.80689530" lon="34.98577950">
        <ele>307.00000</ele>
        <time>2010-01-01T01:14:45Z</time>
      </trkpt>
      <trkpt lat="31.80676760" lon="34.98604770">
        <ele>307.00000</ele>
        <time>2010-01-01T01:14:55Z</time>
      </trkpt>
      <trkpt lat="31.80668560" lon="34.98636960">
        <ele>303.00000</ele>
        <time>2010-01-01T01:15:07Z</time>
      </trkpt>
      <trkpt lat="31.80647590" lon="34.98686310">
        <ele>303.00000</ele>
        <time>2010-01-01T01:15:26Z</time>
      </trkpt>
      <trkpt lat="31.80640000" lon="34.98721000">
        <ele>302.00000</ele>
        <time>2010-01-01T01:15:38Z</time>
      </trkpt>
      <trkpt lat="31.80630000" lon="34.98726000">
        <ele>303.00000</ele>
        <time>2010-01-01T01:15:42Z</time>
      </trkpt>
      <trkpt lat="31.80619000" lon="34.98726000">
        <ele>305.00000</ele>
        <time>2010-01-01T01:15:47Z</time>
      </trkpt>
      <trkpt lat="31.80618000" lon="34.98730000">
        <ele>305.00000</ele>
        <time>2010-01-01T01:15:48Z</time>
      </trkpt>
      <trkpt lat="31.80617000" lon="34.98750000">
        <ele>305.00000</ele>
        <time>2010-01-01T01:15:55Z</time>
      </trkpt>
      <trkpt lat="31.80622000" lon="34.98792000">
        <ele>308.00000</ele>
        <time>2010-01-01T01:16:09Z</time>
      </trkpt>
      <trkpt lat="31.80620000" lon="34.98835000">
        <ele>313.00000</ele>
        <time>2010-01-01T01:16:24Z</time>
      </trkpt>
      <trkpt lat="31.80606000" lon="34.98873000">
        <ele>316.00000</ele>
        <time>2010-01-01T01:16:38Z</time>
      </trkpt>
      <trkpt lat="31.80591000" lon="34.98898000">
        <ele>318.00000</ele>
        <time>2010-01-01T01:16:48Z</time>
      </trkpt>
      <trkpt lat="31.80562000" lon="34.98924000">
        <ele>321.00000</ele>
        <time>2010-01-01T01:17:03Z</time>
      </trkpt>
      <trkpt lat="31.80522000" lon="34.98970000">
        <ele>326.00000</ele>
        <time>2010-01-01T01:17:25Z</time>
      </trkpt>
      <trkpt lat="31.80481000" lon="34.98988000">
        <ele>329.00000</ele>
        <time>2010-01-01T01:17:43Z</time>
      </trkpt>
      <trkpt lat="31.80453000" lon="34.99038000">
        <ele>335.00000</ele>
        <time>2010-01-01T01:18:03Z</time>
      </trkpt>
      <trkpt lat="31.80416000" lon="34.99095000">
        <ele>341.00000</ele>
        <time>2010-01-01T01:18:28Z</time>
      </trkpt>
      <trkpt lat="31.80392000" lon="34.99117000">
        <ele>347.00000</ele>
        <time>2010-01-01T01:18:40Z</time>
      </trkpt>
      <trkpt lat="31.80359000" lon="34.99106000">
        <ele>353.00000</ele>
        <time>2010-01-01T01:18:54Z</time>
      </trkpt>
      <trkpt lat="31.80359000" lon="34.99109000">
        <ele>353.00000</ele>
        <time>2010-01-01T01:18:55Z</time>
      </trkpt>
      <trkpt lat="31.80359000" lon="34.99108000">
        <ele>353.00000</ele>
        <time>2010-01-01T01:18:55Z</time>
      </trkpt>
      <trkpt lat="31.80358000" lon="34.99093000">
        <ele>352.00000</ele>
        <time>2010-01-01T01:19:00Z</time>
      </trkpt>
      <trkpt lat="31.80364000" lon="34.99056000">
        <ele>350.00000</ele>
        <time>2010-01-01T01:19:13Z</time>
      </trkpt>
      <trkpt lat="31.80379000" lon="34.99008000">
        <ele>351.00000</ele>
        <time>2010-01-01T01:19:30Z</time>
      </trkpt>
      <trkpt lat="31.80402000" lon="34.98946000">
        <ele>356.00000</ele>
        <time>2010-01-01T01:19:53Z</time>
      </trkpt>
      <trkpt lat="31.80434000" lon="34.98879000">
        <ele>350.00000</ele>
        <time>2010-01-01T01:20:19Z</time>
      </trkpt>
      <trkpt lat="31.80457000" lon="34.98841000">
        <ele>349.00000</ele>
        <time>2010-01-01T01:20:35Z</time>
      </trkpt>
      <trkpt lat="31.80463000" lon="34.98826000">
        <ele>349.00000</ele>
        <time>2010-01-01T01:20:41Z</time>
      </trkpt>
      <trkpt lat="31.80465000" lon="34.98809000">
        <ele>350.00000</ele>
        <time>2010-01-01T01:20:47Z</time>
      </trkpt>
      <trkpt lat="31.80465000" lon="34.98792000">
        <ele>350.00000</ele>
        <time>2010-01-01T01:20:53Z</time>
      </trkpt>
      <trkpt lat="31.80457000" lon="34.98708000">
        <ele>345.00000</ele>
        <time>2010-01-01T01:21:21Z</time>
      </trkpt>
      <trkpt lat="31.80457000" lon="34.98661000">
        <ele>342.00000</ele>
        <time>2010-01-01T01:21:37Z</time>
      </trkpt>
      <trkpt lat="31.80456000" lon="34.98648000">
        <ele>341.00000</ele>
        <time>2010-01-01T01:21:42Z</time>
      </trkpt>
      <trkpt lat="31.80451000" lon="34.98628000">
        <ele>340.00000</ele>
        <time>2010-01-01T01:21:49Z</time>
      </trkpt>
      <trkpt lat="31.80446000" lon="34.98621000">
        <ele>339.00000</ele>
        <time>2010-01-01T01:21:52Z</time>
      </trkpt>
      <trkpt lat="31.80440000" lon="34.98617000">
        <ele>339.00000</ele>
        <time>2010-01-01T01:21:55Z</time>
      </trkpt>
      <trkpt lat="31.80433000" lon="34.98614000">
        <ele>338.00000</ele>
        <time>2010-01-01T01:21:58Z</time>
      </trkpt>
      <trkpt lat="31.80433000" lon="34.98615000">
        <ele>338.00000</ele>
        <time>2010-01-01T01:21:58Z</time>
      </trkpt>
      <trkpt lat="31.80426000" lon="34.98615000">
        <ele>338.00000</ele>
        <time>2010-01-01T01:22:01Z</time>
      </trkpt>
      <trkpt lat="31.80416000" lon="34.98619000">
        <ele>338.00000</ele>
        <time>2010-01-01T01:22:05Z</time>
      </trkpt>
      <trkpt lat="31.80410000" lon="34.98625000">
        <ele>338.00000</ele>
        <time>2010-01-01T01:22:08Z</time>
      </trkpt>
      <trkpt lat="31.80403000" lon="34.98639000">
        <ele>338.00000</ele>
        <time>2010-01-01T01:22:14Z</time>
      </trkpt>
      <trkpt lat="31.80394000" lon="34.98662000">
        <ele>336.00000</ele>
        <time>2010-01-01T01:22:22Z</time>
      </trkpt>
      <trkpt lat="31.80386000" lon="34.98676000">
        <ele>335.00000</ele>
        <time>2010-01-01T01:22:28Z</time>
      </trkpt>
      <trkpt lat="31.80354000" lon="34.98716000">
        <ele>333.00000</ele>
        <time>2010-01-01T01:22:47Z</time>
      </trkpt>
      <trkpt lat="31.80345000" lon="34.98724000">
        <ele>332.00000</ele>
        <time>2010-01-01T01:22:51Z</time>
      </trkpt>
      <trkpt lat="31.80336000" lon="34.98738000">
        <ele>333.00000</ele>
        <time>2010-01-01T01:22:57Z</time>
      </trkpt>
      <trkpt lat="31.80328000" lon="34.98745000">
        <ele>332.00000</ele>
        <time>2010-01-01T01:23:01Z</time>
      </trkpt>
      <trkpt lat="31.80316000" lon="34.98754000">
        <ele>331.00000</ele>
        <time>2010-01-01T01:23:07Z</time>
      </trkpt>
      <trkpt lat="31.80299000" lon="34.98761000">
        <ele>329.00000</ele>
        <time>2010-01-01T01:23:14Z</time>
      </trkpt>
      <trkpt lat="31.80274000" lon="34.98766000">
        <ele>328.00000</ele>
        <time>2010-01-01T01:23:24Z</time>
      </trkpt>
      <trkpt lat="31.80249000" lon="34.98767000">
        <ele>325.00000</ele>
        <time>2010-01-01T01:23:34Z</time>
      </trkpt>
      <trkpt lat="31.80228000" lon="34.98774000">
        <ele>321.00000</ele>
        <time>2010-01-01T01:23:43Z</time>
      </trkpt>
      <trkpt lat="31.80215000" lon="34.98789000">
        <ele>321.00000</ele>
        <time>2010-01-01T01:23:50Z</time>
      </trkpt>
      <trkpt lat="31.80200000" lon="34.98818000">
        <ele>325.00000</ele>
        <time>2010-01-01T01:24:02Z</time>
      </trkpt>
      <trkpt lat="31.80192000" lon="34.98826000">
        <ele>325.00000</ele>
        <time>2010-01-01T01:24:06Z</time>
      </trkpt>
      <trkpt lat="31.80186000" lon="34.98830000">
        <ele>325.00000</ele>
        <time>2010-01-01T01:24:09Z</time>
      </trkpt>
      <trkpt lat="31.80179000" lon="34.98832000">
        <ele>325.00000</ele>
        <time>2010-01-01T01:24:12Z</time>
      </trkpt>
      <trkpt lat="31.80165000" lon="34.98829000">
        <ele>322.00000</ele>
        <time>2010-01-01T01:24:17Z</time>
      </trkpt>
      <trkpt lat="31.80147000" lon="34.98816000">
        <ele>316.00000</ele>
        <time>2010-01-01T01:24:26Z</time>
      </trkpt>
      <trkpt lat="31.80121000" lon="34.98792000">
        <ele>310.00000</ele>
        <time>2010-01-01T01:24:39Z</time>
      </trkpt>
      <trkpt lat="31.80106000" lon="34.98781000">
        <ele>308.00000</ele>
        <time>2010-01-01T01:24:46Z</time>
      </trkpt>
      <trkpt lat="31.80087000" lon="34.98769000">
        <ele>307.00000</ele>
        <time>2010-01-01T01:24:55Z</time>
      </trkpt>
      <trkpt lat="31.80066000" lon="34.98762000">
        <ele>305.00000</ele>
        <time>2010-01-01T01:25:04Z</time>
      </trkpt>
      <trkpt lat="31.80052000" lon="34.98762000">
        <ele>303.00000</ele>
        <time>2010-01-01T01:25:09Z</time>
      </trkpt>
      <trkpt lat="31.80042000" lon="34.98764000">
        <ele>302.00000</ele>
        <time>2010-01-01T01:25:13Z</time>
      </trkpt>
      <trkpt lat="31.80027000" lon="34.98767000">
        <ele>300.00000</ele>
        <time>2010-01-01T01:25:19Z</time>
      </trkpt>
      <trkpt lat="31.80010000" lon="34.98775000">
        <ele>299.00000</ele>
        <time>2010-01-01T01:25:27Z</time>
      </trkpt>
      <trkpt lat="31.79966000" lon="34.98803000">
        <ele>296.00000</ele>
        <time>2010-01-01T01:25:47Z</time>
      </trkpt>
      <trkpt lat="31.79945000" lon="34.98818000">
        <ele>295.00000</ele>
        <time>2010-01-01T01:25:56Z</time>
      </trkpt>
      <trkpt lat="31.79922000" lon="34.98846000">
        <ele>294.00000</ele>
        <time>2010-01-01T01:26:10Z</time>
      </trkpt>
      <trkpt lat="31.79908000" lon="34.98870000">
        <ele>291.00000</ele>
        <time>2010-01-01T01:26:20Z</time>
      </trkpt>
      <trkpt lat="31.79891000" lon="34.98904000">
        <ele>289.00000</ele>
        <time>2010-01-01T01:26:33Z</time>
      </trkpt>
      <trkpt lat="31.79904000" lon="34.98878000">
        <ele>290.00000</ele>
        <time>2010-01-01T01:26:43Z</time>
      </trkpt>
      <trkpt lat="31.79893000" lon="34.98900000">
        <ele>289.00000</ele>
        <time>2010-01-01T01:26:52Z</time>
      </trkpt>
      <trkpt lat="31.79893000" lon="34.98903000">
        <ele>289.00000</ele>
        <time>2010-01-01T01:26:53Z</time>
      </trkpt>
      <trkpt lat="31.79874370" lon="34.98910540">
        <ele>288.00000</ele>
        <time>2010-01-01T01:27:01Z</time>
      </trkpt>
      <trkpt lat="31.79865250" lon="34.98907320">
        <ele>287.00000</ele>
        <time>2010-01-01T01:27:05Z</time>
      </trkpt>
      <trkpt lat="31.79835160" lon="34.98854750">
        <ele>286.00000</ele>
        <time>2010-01-01T01:27:26Z</time>
      </trkpt>
      <trkpt lat="31.79789570" lon="34.98851530">
        <ele>293.00000</ele>
        <time>2010-01-01T01:27:45Z</time>
      </trkpt>
      <trkpt lat="31.79743980" lon="34.98865480">
        <ele>294.00000</ele>
        <time>2010-01-01T01:28:03Z</time>
      </trkpt>
      <trkpt lat="31.79700210" lon="34.98882650">
        <ele>299.00000</ele>
        <time>2010-01-01T01:28:22Z</time>
      </trkpt>
      <trkpt lat="31.79657350" lon="34.98915910">
        <ele>302.00000</ele>
        <time>2010-01-01T01:28:42Z</time>
      </trkpt>
      <trkpt lat="31.79629990" lon="34.98939510">
        <ele>302.00000</ele>
        <time>2010-01-01T01:28:56Z</time>
      </trkpt>
      <trkpt lat="31.79592610" lon="34.99006030">
        <ele>309.00000</ele>
        <time>2010-01-01T01:29:23Z</time>
      </trkpt>
      <trkpt lat="31.79554310" lon="34.99061820">
        <ele>317.00000</ele>
        <time>2010-01-01T01:29:48Z</time>
      </trkpt>
      <trkpt lat="31.79507350" lon="34.99126730">
        <ele>323.00000</ele>
        <time>2010-01-01T01:30:17Z</time>
      </trkpt>
      <trkpt lat="31.79486370" lon="34.99159990">
        <ele>327.00000</ele>
        <time>2010-01-01T01:30:31Z</time>
      </trkpt>
      <trkpt lat="31.79468590" lon="34.99192710">
        <ele>330.00000</ele>
        <time>2010-01-01T01:30:44Z</time>
      </trkpt>
      <trkpt lat="31.79452630" lon="34.99227580">
        <ele>332.00000</ele>
        <time>2010-01-01T01:30:57Z</time>
      </trkpt>
      <trkpt lat="31.79444880" lon="34.99267810">
        <ele>335.00000</ele>
        <time>2010-01-01T01:31:11Z</time>
      </trkpt>
      <trkpt lat="31.79415700" lon="34.99370810">
        <ele>343.00000</ele>
        <time>2010-01-01T01:31:48Z</time>
      </trkpt>
      <trkpt lat="31.79395640" lon="34.99420160">
        <ele>345.00000</ele>
        <time>2010-01-01T01:32:07Z</time>
      </trkpt>
      <trkpt lat="31.79384700" lon="34.99469510">
        <ele>347.00000</ele>
        <time>2010-01-01T01:32:24Z</time>
      </trkpt>
      <trkpt lat="31.79351870" lon="34.99539250">
        <ele>357.00000</ele>
        <time>2010-01-01T01:32:51Z</time>
      </trkpt>
      <trkpt lat="31.79320860" lon="34.99608990">
        <ele>364.00000</ele>
        <time>2010-01-01T01:33:18Z</time>
      </trkpt>
      <trkpt lat="31.79276180" lon="34.99660490">
        <ele>370.00000</ele>
        <time>2010-01-01T01:33:43Z</time>
      </trkpt>
      <trkpt lat="31.79225110" lon="34.99721640">
        <ele>379.00000</ele>
        <time>2010-01-01T01:34:12Z</time>
      </trkpt>
      <trkpt lat="31.79221470" lon="34.99732370">
        <ele>381.00000</ele>
        <time>2010-01-01T01:34:16Z</time>
      </trkpt>
      <trkpt lat="31.79214170" lon="34.99743100">
        <ele>382.00000</ele>
        <time>2010-01-01T01:34:21Z</time>
      </trkpt>
      <trkpt lat="31.79197000" lon="34.99767000">
        <ele>385.00000</ele>
        <time>2010-01-01T01:34:32Z</time>
      </trkpt>
      <trkpt lat="31.79196000" lon="34.99767000">
        <ele>385.00000</ele>
        <time>2010-01-01T01:34:32Z</time>
      </trkpt>
      <trkpt lat="31.79180000" lon="34.99777000">
        <ele>387.00000</ele>
        <time>2010-01-01T01:34:39Z</time>
      </trkpt>
      <trkpt lat="31.79153000" lon="34.99801000">
        <ele>390.00000</ele>
        <time>2010-01-01T01:34:53Z</time>
      </trkpt>
      <trkpt lat="31.79145000" lon="34.99805000">
        <ele>390.00000</ele>
        <time>2010-01-01T01:34:56Z</time>
      </trkpt>
      <trkpt lat="31.79136000" lon="34.99806000">
        <ele>389.00000</ele>
        <time>2010-01-01T01:35:00Z</time>
      </trkpt>
      <trkpt lat="31.79104000" lon="34.99801000">
        <ele>387.00000</ele>
        <time>2010-01-01T01:35:13Z</time>
      </trkpt>
      <trkpt lat="31.79096000" lon="34.99803000">
        <ele>386.00000</ele>
        <time>2010-01-01T01:35:16Z</time>
      </trkpt>
      <trkpt lat="31.79089000" lon="34.99809000">
        <ele>386.00000</ele>
        <time>2010-01-01T01:35:20Z</time>
      </trkpt>
      <trkpt lat="31.79086000" lon="34.99817000">
        <ele>385.00000</ele>
        <time>2010-01-01T01:35:23Z</time>
      </trkpt>
      <trkpt lat="31.79093800" lon="34.99846100">
        <ele>385.00000</ele>
        <time>2010-01-01T01:35:33Z</time>
      </trkpt>
      <trkpt lat="31.79149420" lon="34.99906180">
        <ele>385.00000</ele>
        <time>2010-01-01T01:36:03Z</time>
      </trkpt>
      <trkpt lat="31.79190460" lon="34.99941580">
        <ele>388.00000</ele>
        <time>2010-01-01T01:36:24Z</time>
      </trkpt>
      <trkpt lat="31.79231500" lon="34.99973770">
        <ele>387.00000</ele>
        <time>2010-01-01T01:36:43Z</time>
      </trkpt>
      <trkpt lat="31.79243350" lon="35.00005960">
        <ele>383.00000</ele>
        <time>2010-01-01T01:36:55Z</time>
      </trkpt>
      <trkpt lat="31.79267060" lon="35.00038140">
        <ele>382.00000</ele>
        <time>2010-01-01T01:37:10Z</time>
      </trkpt>
      <trkpt lat="31.79321780" lon="35.00053160">
        <ele>380.00000</ele>
        <time>2010-01-01T01:37:32Z</time>
      </trkpt>
      <trkpt lat="31.79399290" lon="35.00051020">
        <ele>374.00000</ele>
        <time>2010-01-01T01:38:03Z</time>
      </trkpt>
      <trkpt lat="31.79434850" lon="35.00074620">
        <ele>375.00000</ele>
        <time>2010-01-01T01:38:20Z</time>
      </trkpt>
      <trkpt lat="31.79460380" lon="35.00079980">
        <ele>376.00000</ele>
        <time>2010-01-01T01:38:30Z</time>
      </trkpt>
      <trkpt lat="31.79495040" lon="35.00066040">
        <ele>375.00000</ele>
        <time>2010-01-01T01:38:45Z</time>
      </trkpt>
      <trkpt lat="31.79541540" lon="35.00069260">
        <ele>379.00000</ele>
        <time>2010-01-01T01:39:03Z</time>
      </trkpt>
      <trkpt lat="31.79579840" lon="35.00091790">
        <ele>384.00000</ele>
        <time>2010-01-01T01:39:20Z</time>
      </trkpt>
      <trkpt lat="31.79588960" lon="35.00114320">
        <ele>385.00000</ele>
        <time>2010-01-01T01:39:29Z</time>
      </trkpt>
      <trkpt lat="31.79586220" lon="35.00135770">
        <ele>385.00000</ele>
        <time>2010-01-01T01:39:36Z</time>
      </trkpt>
      <trkpt lat="31.79569810" lon="35.00162600">
        <ele>385.00000</ele>
        <time>2010-01-01T01:39:48Z</time>
      </trkpt>
      <trkpt lat="31.79537890" lon="35.00200150">
        <ele>388.00000</ele>
        <time>2010-01-01T01:40:06Z</time>
      </trkpt>
      <trkpt lat="31.79448530" lon="35.00289200">
        <ele>393.00000</ele>
        <time>2010-01-01T01:40:52Z</time>
      </trkpt>
      <trkpt lat="31.79411140" lon="35.00362150">
        <ele>397.00000</ele>
        <time>2010-01-01T01:41:21Z</time>
      </trkpt>
      <trkpt lat="31.79387430" lon="35.00405070">
        <ele>399.00000</ele>
        <time>2010-01-01T01:41:39Z</time>
      </trkpt>
      <trkpt lat="31.79358250" lon="35.00447980">
        <ele>395.00000</ele>
        <time>2010-01-01T01:41:58Z</time>
      </trkpt>
      <trkpt lat="31.79383780" lon="35.00459250">
        <ele>392.00000</ele>
        <time>2010-01-01T01:42:08Z</time>
      </trkpt>
      <trkpt lat="31.79460840" lon="35.00434040">
        <ele>386.00000</ele>
        <time>2010-01-01T01:42:41Z</time>
      </trkpt>
      <trkpt lat="31.79506430" lon="35.00398630">
        <ele>380.00000</ele>
        <time>2010-01-01T01:43:02Z</time>
      </trkpt>
      <trkpt lat="31.79504150" lon="35.00338550">
        <ele>382.00000</ele>
        <time>2010-01-01T01:43:23Z</time>
      </trkpt>
      <trkpt lat="31.79536070" lon="35.00304220">
        <ele>380.00000</ele>
        <time>2010-01-01T01:43:40Z</time>
      </trkpt>
      <trkpt lat="31.79547920" lon="35.00322460">
        <ele>375.00000</ele>
        <time>2010-01-01T01:43:48Z</time>
      </trkpt>
      <trkpt lat="31.79559000" lon="35.00332000">
        <ele>371.00000</ele>
        <time>2010-01-01T01:43:53Z</time>
      </trkpt>
      <trkpt lat="31.79614000" lon="35.00293000">
        <ele>368.00000</ele>
        <time>2010-01-01T01:44:19Z</time>
      </trkpt>
      <trkpt lat="31.79665000" lon="35.00289000">
        <ele>364.00000</ele>
        <time>2010-01-01T01:44:40Z</time>
      </trkpt>
      <trkpt lat="31.79677000" lon="35.00282000">
        <ele>364.00000</ele>
        <time>2010-01-01T01:44:45Z</time>
      </trkpt>
      <trkpt lat="31.79692000" lon="35.00266000">
        <ele>365.00000</ele>
        <time>2010-01-01T01:44:53Z</time>
      </trkpt>
      <trkpt lat="31.79745000" lon="35.00182000">
        <ele>362.00000</ele>
        <time>2010-01-01T01:45:29Z</time>
      </trkpt>
      <trkpt lat="31.79762000" lon="35.00141000">
        <ele>362.00000</ele>
        <time>2010-01-01T01:45:44Z</time>
      </trkpt>
      <trkpt lat="31.79776000" lon="35.00129000">
        <ele>361.00000</ele>
        <time>2010-01-01T01:45:51Z</time>
      </trkpt>
      <trkpt lat="31.79791000" lon="35.00126000">
        <ele>363.00000</ele>
        <time>2010-01-01T01:45:57Z</time>
      </trkpt>
      <trkpt lat="31.79791000" lon="35.00125000">
        <ele>363.00000</ele>
        <time>2010-01-01T01:45:58Z</time>
      </trkpt>
      <trkpt lat="31.79773000" lon="35.00104000">
        <ele>365.00000</ele>
        <time>2010-01-01T01:46:08Z</time>
      </trkpt>
      <trkpt lat="31.79750000" lon="35.00080000">
        <ele>364.00000</ele>
        <time>2010-01-01T01:46:20Z</time>
      </trkpt>
      <trkpt lat="31.79752000" lon="35.00079000">
        <ele>364.00000</ele>
        <time>2010-01-01T01:46:21Z</time>
      </trkpt>
      <trkpt lat="31.79774000" lon="35.00073000">
        <ele>367.00000</ele>
        <time>2010-01-01T01:46:30Z</time>
      </trkpt>
      <trkpt lat="31.79810000" lon="35.00073000">
        <ele>371.00000</ele>
        <time>2010-01-01T01:46:44Z</time>
      </trkpt>
      <trkpt lat="31.79824000" lon="35.00077000">
        <ele>373.00000</ele>
        <time>2010-01-01T01:46:50Z</time>
      </trkpt>
      <trkpt lat="31.79854000" lon="35.00098000">
        <ele>374.00000</ele>
        <time>2010-01-01T01:47:04Z</time>
      </trkpt>
      <trkpt lat="31.79874000" lon="35.00109000">
        <ele>375.00000</ele>
        <time>2010-01-01T01:47:13Z</time>
      </trkpt>
      <trkpt lat="31.79895000" lon="35.00111000">
        <ele>376.00000</ele>
        <time>2010-01-01T01:47:21Z</time>
      </trkpt>
      <trkpt lat="31.79907000" lon="35.00107000">
        <ele>378.00000</ele>
        <time>2010-01-01T01:47:26Z</time>
      </trkpt>
      <trkpt lat="31.79936000" lon="35.00102000">
        <ele>378.00000</ele>
        <time>2010-01-01T01:47:38Z</time>
      </trkpt>
      <trkpt lat="31.79947000" lon="35.00096000">
        <ele>379.00000</ele>
        <time>2010-01-01T01:47:43Z</time>
      </trkpt>
      <trkpt lat="31.79965000" lon="35.00080000">
        <ele>379.00000</ele>
        <time>2010-01-01T01:47:52Z</time>
      </trkpt>
      <trkpt lat="31.79983000" lon="35.00060000">
        <ele>377.00000</ele>
        <time>2010-01-01T01:48:02Z</time>
      </trkpt>
      <trkpt lat="31.79992000" lon="35.00044000">
        <ele>377.00000</ele>
        <time>2010-01-01T01:48:08Z</time>
      </trkpt>
      <trkpt lat="31.79992000" lon="35.00043000">
        <ele>377.00000</ele>
        <time>2010-01-01T01:48:09Z</time>
      </trkpt>
      <trkpt lat="31.79992000" lon="35.00042000">
        <ele>377.00000</ele>
        <time>2010-01-01T01:48:09Z</time>
      </trkpt>
      <trkpt lat="31.79992000" lon="35.00044000">
        <ele>377.00000</ele>
        <time>2010-01-01T01:48:10Z</time>
      </trkpt>
      <trkpt lat="31.80045000" lon="35.00045000">
        <ele>373.00000</ele>
        <time>2010-01-01T01:48:31Z</time>
      </trkpt>
      <trkpt lat="31.80079000" lon="35.00040000">
        <ele>373.00000</ele>
        <time>2010-01-01T01:48:45Z</time>
      </trkpt>
      <trkpt lat="31.80097000" lon="35.00044000">
        <ele>372.00000</ele>
        <time>2010-01-01T01:48:52Z</time>
      </trkpt>
      <trkpt lat="31.80096000" lon="35.00048000">
        <ele>372.00000</ele>
        <time>2010-01-01T01:48:53Z</time>
      </trkpt>
      <trkpt lat="31.80094000" lon="35.00067000">
        <ele>369.00000</ele>
        <time>2010-01-01T01:49:00Z</time>
      </trkpt>
      <trkpt lat="31.80095000" lon="35.00075000">
        <ele>369.00000</ele>
        <time>2010-01-01T01:49:03Z</time>
      </trkpt>
      <trkpt lat="31.80105000" lon="35.00094000">
        <ele>366.00000</ele>
        <time>2010-01-01T01:49:10Z</time>
      </trkpt>
      <trkpt lat="31.80109000" lon="35.00101000">
        <ele>365.00000</ele>
        <time>2010-01-01T01:49:13Z</time>
      </trkpt>
      <trkpt lat="31.80122000" lon="35.00112000">
        <ele>366.00000</ele>
        <time>2010-01-01T01:49:20Z</time>
      </trkpt>
      <trkpt lat="31.80157000" lon="35.00138000">
        <ele>366.00000</ele>
        <time>2010-01-01T01:49:36Z</time>
      </trkpt>
      <trkpt lat="31.80184000" lon="35.00154000">
        <ele>367.00000</ele>
        <time>2010-01-01T01:49:48Z</time>
      </trkpt>
      <trkpt lat="31.80239000" lon="35.00175000">
        <ele>366.00000</ele>
        <time>2010-01-01T01:50:11Z</time>
      </trkpt>
      <trkpt lat="31.80267000" lon="35.00181000">
        <ele>367.00000</ele>
        <time>2010-01-01T01:50:23Z</time>
      </trkpt>
      <trkpt lat="31.80365000" lon="35.00187000">
        <ele>365.00000</ele>
        <time>2010-01-01T01:51:02Z</time>
      </trkpt>
      <trkpt lat="31.80423000" lon="35.00184000">
        <ele>363.00000</ele>
        <time>2010-01-01T01:51:25Z</time>
      </trkpt>
      <trkpt lat="31.80489000" lon="35.00167000">
        <ele>358.00000</ele>
        <time>2010-01-01T01:51:52Z</time>
      </trkpt>
      <trkpt lat="31.80535000" lon="35.00152000">
        <ele>354.00000</ele>
        <time>2010-01-01T01:52:11Z</time>
      </trkpt>
      <trkpt lat="31.80575000" lon="35.00142000">
        <ele>351.00000</ele>
        <time>2010-01-01T01:52:28Z</time>
      </trkpt>
      <trkpt lat="31.80588000" lon="35.00136000">
        <ele>352.00000</ele>
        <time>2010-01-01T01:52:33Z</time>
      </trkpt>
      <trkpt lat="31.80605000" lon="35.00122000">
        <ele>352.00000</ele>
        <time>2010-01-01T01:52:42Z</time>
      </trkpt>
      <trkpt lat="31.80637000" lon="35.00109000">
        <ele>349.00000</ele>
        <time>2010-01-01T01:52:55Z</time>
      </trkpt>
      <trkpt lat="31.80650000" lon="35.00101000">
        <ele>348.00000</ele>
        <time>2010-01-01T01:53:01Z</time>
      </trkpt>
      <trkpt lat="31.80661000" lon="35.00089000">
        <ele>349.00000</ele>
        <time>2010-01-01T01:53:07Z</time>
      </trkpt>
      <trkpt lat="31.80668000" lon="35.00067000">
        <ele>352.00000</ele>
        <time>2010-01-01T01:53:15Z</time>
      </trkpt>
      <trkpt lat="31.80671000" lon="35.00049000">
        <ele>354.00000</ele>
        <time>2010-01-01T01:53:21Z</time>
      </trkpt>
      <trkpt lat="31.80671000" lon="35.00041000">
        <ele>354.00000</ele>
        <time>2010-01-01T01:53:24Z</time>
      </trkpt>
      <trkpt lat="31.80669000" lon="35.00030000">
        <ele>355.00000</ele>
        <time>2010-01-01T01:53:28Z</time>
      </trkpt>
      <trkpt lat="31.80657000" lon="35.00007000">
        <ele>355.00000</ele>
        <time>2010-01-01T01:53:37Z</time>
      </trkpt>
      <trkpt lat="31.80656000" lon="35.00006000">
        <ele>355.00000</ele>
        <time>2010-01-01T01:53:38Z</time>
      </trkpt>
      <trkpt lat="31.80664000" lon="34.99999000">
        <ele>354.00000</ele>
        <time>2010-01-01T01:53:42Z</time>
      </trkpt>
      <trkpt lat="31.80687000" lon="34.99951000">
        <ele>350.00000</ele>
        <time>2010-01-01T01:54:00Z</time>
      </trkpt>
      <trkpt lat="31.80689000" lon="34.99945000">
        <ele>350.00000</ele>
        <time>2010-01-01T01:54:03Z</time>
      </trkpt>
      <trkpt lat="31.80689000" lon="34.99939000">
        <ele>349.00000</ele>
        <time>2010-01-01T01:54:05Z</time>
      </trkpt>
      <trkpt lat="31.80695000" lon="34.99925000">
        <ele>347.00000</ele>
        <time>2010-01-01T01:54:10Z</time>
      </trkpt>
      <trkpt lat="31.80666000" lon="34.99927000">
        <ele>346.00000</ele>
        <time>2010-01-01T01:54:22Z</time>
      </trkpt>
      <trkpt lat="31.80625000" lon="34.99911000">
        <ele>344.00000</ele>
        <time>2010-01-01T01:54:39Z</time>
      </trkpt>
      <trkpt lat="31.80601000" lon="34.99903000">
        <ele>344.00000</ele>
        <time>2010-01-01T01:54:49Z</time>
      </trkpt>
      <trkpt lat="31.80591000" lon="34.99898000">
        <ele>344.00000</ele>
        <time>2010-01-01T01:54:53Z</time>
      </trkpt>
      <trkpt lat="31.80583000" lon="34.99890000">
        <ele>344.00000</ele>
        <time>2010-01-01T01:54:57Z</time>
      </trkpt>
      <trkpt lat="31.80579000" lon="34.99883000">
        <ele>344.00000</ele>
        <time>2010-01-01T01:55:00Z</time>
      </trkpt>
      <trkpt lat="31.80567000" lon="34.99852000">
        <ele>342.00000</ele>
        <time>2010-01-01T01:55:12Z</time>
      </trkpt>
      <trkpt lat="31.80557000" lon="34.99832000">
        <ele>341.00000</ele>
        <time>2010-01-01T01:55:20Z</time>
      </trkpt>
      <trkpt lat="31.80546000" lon="34.99815000">
        <ele>341.00000</ele>
        <time>2010-01-01T01:55:27Z</time>
      </trkpt>
      <trkpt lat="31.80537000" lon="34.99805000">
        <ele>341.00000</ele>
        <time>2010-01-01T01:55:32Z</time>
      </trkpt>
      <trkpt lat="31.80515000" lon="34.99792000">
        <ele>344.00000</ele>
        <time>2010-01-01T01:55:42Z</time>
      </trkpt>
      <trkpt lat="31.80495000" lon="34.99787000">
        <ele>347.00000</ele>
        <time>2010-01-01T01:55:50Z</time>
      </trkpt>
      <trkpt lat="31.80478000" lon="34.99788000">
        <ele>351.00000</ele>
        <time>2010-01-01T01:55:57Z</time>
      </trkpt>
      <trkpt lat="31.80458000" lon="34.99792000">
        <ele>353.00000</ele>
        <time>2010-01-01T01:56:05Z</time>
      </trkpt>
      <trkpt lat="31.80437000" lon="34.99803000">
        <ele>353.00000</ele>
        <time>2010-01-01T01:56:14Z</time>
      </trkpt>
      <trkpt lat="31.80420000" lon="34.99818000">
        <ele>353.00000</ele>
        <time>2010-01-01T01:56:23Z</time>
      </trkpt>
      <trkpt lat="31.80400000" lon="34.99840000">
        <ele>355.00000</ele>
        <time>2010-01-01T01:56:34Z</time>
      </trkpt>
      <trkpt lat="31.80380000" lon="34.99857000">
        <ele>355.00000</ele>
        <time>2010-01-01T01:56:44Z</time>
      </trkpt>
      <trkpt lat="31.80340000" lon="34.99886000">
        <ele>351.00000</ele>
        <time>2010-01-01T01:57:02Z</time>
      </trkpt>
      <trkpt lat="31.80288000" lon="34.99938000">
        <ele>358.00000</ele>
        <time>2010-01-01T01:57:30Z</time>
      </trkpt>
      <trkpt lat="31.80282000" lon="34.99940000">
        <ele>358.00000</ele>
        <time>2010-01-01T01:57:32Z</time>
      </trkpt>
      <trkpt lat="31.80301000" lon="34.99875000">
        <ele>345.00000</ele>
        <time>2010-01-01T01:57:56Z</time>
      </trkpt>
      <trkpt lat="31.80307000" lon="34.99850000">
        <ele>340.00000</ele>
        <time>2010-01-01T01:58:04Z</time>
      </trkpt>
      <trkpt lat="31.80323000" lon="34.99806000">
        <ele>333.00000</ele>
        <time>2010-01-01T01:58:21Z</time>
      </trkpt>
      <trkpt lat="31.80332000" lon="34.99777000">
        <ele>327.00000</ele>
        <time>2010-01-01T01:58:31Z</time>
      </trkpt>
      <trkpt lat="31.80338000" lon="34.99766000">
        <ele>326.00000</ele>
        <time>2010-01-01T01:58:36Z</time>
      </trkpt>
      <trkpt lat="31.80342000" lon="34.99749000">
        <ele>323.00000</ele>
        <time>2010-01-01T01:58:42Z</time>
      </trkpt>
      <trkpt lat="31.80343000" lon="34.99736000">
        <ele>322.00000</ele>
        <time>2010-01-01T01:58:46Z</time>
      </trkpt>
      <trkpt lat="31.80341000" lon="34.99718000">
        <ele>319.00000</ele>
        <time>2010-01-01T01:58:52Z</time>
      </trkpt>
      <trkpt lat="31.80325000" lon="34.99663000">
        <ele>318.00000</ele>
        <time>2010-01-01T01:59:12Z</time>
      </trkpt>
      <trkpt lat="31.80324000" lon="34.99663000">
        <ele>318.00000</ele>
        <time>2010-01-01T01:59:12Z</time>
      </trkpt>
      <trkpt lat="31.80342000" lon="34.99660000">
        <ele>319.00000</ele>
        <time>2010-01-01T01:59:20Z</time>
      </trkpt>
      <trkpt lat="31.80363000" lon="34.99653000">
        <ele>320.00000</ele>
        <time>2010-01-01T01:59:28Z</time>
      </trkpt>
      <trkpt lat="31.80404000" lon="34.99637000">
        <ele>320.00000</ele>
        <time>2010-01-01T01:59:46Z</time>
      </trkpt>
      <trkpt lat="31.80422000" lon="34.99636000">
        <ele>319.00000</ele>
        <time>2010-01-01T01:59:53Z</time>
      </trkpt>
      <trkpt lat="31.80469000" lon="34.99637000">
        <ele>312.00000</ele>
        <time>2010-01-01T02:00:12Z</time>
      </trkpt>
      <trkpt lat="31.80493000" lon="34.99631000">
        <ele>309.00000</ele>
        <time>2010-01-01T02:00:22Z</time>
      </trkpt>
      <trkpt lat="31.80515000" lon="34.99621000">
        <ele>309.00000</ele>
        <time>2010-01-01T02:00:31Z</time>
      </trkpt>
      <trkpt lat="31.80582000" lon="34.99620000">
        <ele>309.00000</ele>
        <time>2010-01-01T02:00:58Z</time>
      </trkpt>
      <trkpt lat="31.80596000" lon="34.99616000">
        <ele>307.00000</ele>
        <time>2010-01-01T02:01:04Z</time>
      </trkpt>
      <trkpt lat="31.80613000" lon="34.99608000">
        <ele>305.00000</ele>
        <time>2010-01-01T02:01:11Z</time>
      </trkpt>
      <trkpt lat="31.80660000" lon="34.99577000">
        <ele>302.00000</ele>
        <time>2010-01-01T02:01:32Z</time>
      </trkpt>
      <trkpt lat="31.80711000" lon="34.99537000">
        <ele>301.00000</ele>
        <time>2010-01-01T02:01:57Z</time>
      </trkpt>
      <trkpt lat="31.80724000" lon="34.99522000">
        <ele>298.00000</ele>
        <time>2010-01-01T02:02:04Z</time>
      </trkpt>
      <trkpt lat="31.80760000" lon="34.99470000">
        <ele>293.00000</ele>
        <time>2010-01-01T02:02:27Z</time>
      </trkpt>
      <trkpt lat="31.80774000" lon="34.99456000">
        <ele>292.00000</ele>
        <time>2010-01-01T02:02:34Z</time>
      </trkpt>
      <trkpt lat="31.80787000" lon="34.99450000">
        <ele>292.00000</ele>
        <time>2010-01-01T02:02:40Z</time>
      </trkpt>
      <trkpt lat="31.80800000" lon="34.99440000">
        <ele>294.00000</ele>
        <time>2010-01-01T02:02:46Z</time>
      </trkpt>
      <trkpt lat="31.80801000" lon="34.99439000">
        <ele>295.00000</ele>
        <time>2010-01-01T02:02:47Z</time>
      </trkpt>
      <trkpt lat="31.80798000" lon="34.99433000">
        <ele>295.00000</ele>
        <time>2010-01-01T02:02:49Z</time>
      </trkpt>
      <trkpt lat="31.80796000" lon="34.99421000">
        <ele>297.00000</ele>
        <time>2010-01-01T02:02:53Z</time>
      </trkpt>
      <trkpt lat="31.80794000" lon="34.99353000">
        <ele>308.00000</ele>
        <time>2010-01-01T02:03:16Z</time>
      </trkpt>
      <trkpt lat="31.80793000" lon="34.99344000">
        <ele>311.00000</ele>
        <time>2010-01-01T02:03:20Z</time>
      </trkpt>
      <trkpt lat="31.80789000" lon="34.99337000">
        <ele>312.00000</ele>
        <time>2010-01-01T02:03:22Z</time>
      </trkpt>
      <trkpt lat="31.80774000" lon="34.99327000">
        <ele>314.00000</ele>
        <time>2010-01-01T02:03:29Z</time>
      </trkpt>
      <trkpt lat="31.80756000" lon="34.99321000">
        <ele>316.00000</ele>
        <time>2010-01-01T02:03:37Z</time>
      </trkpt>
      <trkpt lat="31.80730000" lon="34.99307000">
        <ele>320.00000</ele>
        <time>2010-01-01T02:03:48Z</time>
      </trkpt>
      <trkpt lat="31.80721000" lon="34.99300000">
        <ele>322.00000</ele>
        <time>2010-01-01T02:03:53Z</time>
      </trkpt>
      <trkpt lat="31.80718000" lon="34.99292000">
        <ele>325.00000</ele>
        <time>2010-01-01T02:03:56Z</time>
      </trkpt>
      <trkpt lat="31.80719000" lon="34.99288000">
        <ele>326.00000</ele>
        <time>2010-01-01T02:03:57Z</time>
      </trkpt>
      <trkpt lat="31.80724000" lon="34.99284000">
        <ele>327.00000</ele>
        <time>2010-01-01T02:03:59Z</time>
      </trkpt>
      <trkpt lat="31.80745000" lon="34.99280000">
        <ele>328.00000</ele>
        <time>2010-01-01T02:04:08Z</time>
      </trkpt>
      <trkpt lat="31.80782000" lon="34.99253000">
        <ele>333.00000</ele>
        <time>2010-01-01T02:04:25Z</time>
      </trkpt>
      <trkpt lat="31.80802000" lon="34.99245000">
        <ele>334.00000</ele>
        <time>2010-01-01T02:04:34Z</time>
      </trkpt>
      <trkpt lat="31.80829000" lon="34.99245000">
        <ele>336.00000</ele>
        <time>2010-01-01T02:04:45Z</time>
      </trkpt>
      <trkpt lat="31.80832000" lon="34.99244000">
        <ele>336.00000</ele>
        <time>2010-01-01T02:04:46Z</time>
      </trkpt>
      <trkpt lat="31.80870000" lon="34.99302000">
        <ele>329.00000</ele>
        <time>2010-01-01T02:05:11Z</time>
      </trkpt>
      <trkpt lat="31.80882000" lon="34.99313000">
        <ele>330.00000</ele>
        <time>2010-01-01T02:05:17Z</time>
      </trkpt>
      <trkpt lat="31.80899000" lon="34.99320000">
        <ele>329.00000</ele>
        <time>2010-01-01T02:05:24Z</time>
      </trkpt>
      <trkpt lat="31.80913000" lon="34.99320000">
        <ele>329.00000</ele>
        <time>2010-01-01T02:05:30Z</time>
      </trkpt>
      <trkpt lat="31.80930000" lon="34.99313000">
        <ele>329.00000</ele>
        <time>2010-01-01T02:05:37Z</time>
      </trkpt>
      <trkpt lat="31.80940000" lon="34.99308000">
        <ele>328.00000</ele>
        <time>2010-01-01T02:05:41Z</time>
      </trkpt>
      <trkpt lat="31.80954000" lon="34.99294000">
        <ele>328.00000</ele>
        <time>2010-01-01T02:05:49Z</time>
      </trkpt>
      <trkpt lat="31.80963000" lon="34.99281000">
        <ele>328.00000</ele>
        <time>2010-01-01T02:05:54Z</time>
      </trkpt>
      <trkpt lat="31.80975000" lon="34.99255000">
        <ele>331.00000</ele>
        <time>2010-01-01T02:06:04Z</time>
      </trkpt>
      <trkpt lat="31.80982000" lon="34.99244000">
        <ele>331.00000</ele>
        <time>2010-01-01T02:06:09Z</time>
      </trkpt>
      <trkpt lat="31.80997000" lon="34.99215000">
        <ele>330.00000</ele>
        <time>2010-01-01T02:06:21Z</time>
      </trkpt>
      <trkpt lat="31.81009000" lon="34.99194000">
        <ele>330.00000</ele>
        <time>2010-01-01T02:06:29Z</time>
      </trkpt>
      <trkpt lat="31.81020000" lon="34.99183000">
        <ele>331.00000</ele>
        <time>2010-01-01T02:06:35Z</time>
      </trkpt>
      <trkpt lat="31.81046000" lon="34.99153000">
        <ele>333.00000</ele>
        <time>2010-01-01T02:06:50Z</time>
      </trkpt>
      <trkpt lat="31.81056000" lon="34.99147000">
        <ele>332.00000</ele>
        <time>2010-01-01T02:06:54Z</time>
      </trkpt>
      <trkpt lat="31.81067000" lon="34.99136000">
        <ele>333.00000</ele>
        <time>2010-01-01T02:07:00Z</time>
      </trkpt>
      <trkpt lat="31.81082000" lon="34.99126000">
        <ele>332.00000</ele>
        <time>2010-01-01T02:07:07Z</time>
      </trkpt>
      <trkpt lat="31.81096000" lon="34.99120000">
        <ele>332.00000</ele>
        <time>2010-01-01T02:07:13Z</time>
      </trkpt>
      <trkpt lat="31.81116000" lon="34.99109000">
        <ele>332.00000</ele>
        <time>2010-01-01T02:07:22Z</time>
      </trkpt>
      <trkpt lat="31.81132000" lon="34.99091000">
        <ele>330.00000</ele>
        <time>2010-01-01T02:07:30Z</time>
      </trkpt>
      <trkpt lat="31.81139000" lon="34.99078000">
        <ele>329.00000</ele>
        <time>2010-01-01T02:07:36Z</time>
      </trkpt>
      <trkpt lat="31.81150000" lon="34.99013000">
        <ele>328.00000</ele>
        <time>2010-01-01T02:07:58Z</time>
      </trkpt>
      <trkpt lat="31.81149000" lon="34.99010000">
        <ele>328.00000</ele>
        <time>2010-01-01T02:07:59Z</time>
      </trkpt>
      <trkpt lat="31.81149000" lon="34.99009000">
        <ele>328.00000</ele>
        <time>2010-01-01T02:08:00Z</time>
      </trkpt>
      <trkpt lat="31.81158000" lon="34.99030000">
        <ele>326.00000</ele>
        <time>2010-01-01T02:08:08Z</time>
      </trkpt>
      <trkpt lat="31.81163000" lon="34.99052000">
        <ele>324.00000</ele>
        <time>2010-01-01T02:08:15Z</time>
      </trkpt>
      <trkpt lat="31.81168000" lon="34.99064000">
        <ele>323.00000</ele>
        <time>2010-01-01T02:08:20Z</time>
      </trkpt>
      <trkpt lat="31.81180000" lon="34.99085000">
        <ele>322.00000</ele>
        <time>2010-01-01T02:08:29Z</time>
      </trkpt>
      <trkpt lat="31.81207000" lon="34.99114000">
        <ele>318.00000</ele>
        <time>2010-01-01T02:08:43Z</time>
      </trkpt>
      <trkpt lat="31.81263000" lon="34.99157000">
        <ele>310.00000</ele>
        <time>2010-01-01T02:09:10Z</time>
      </trkpt>
      <trkpt lat="31.81290000" lon="34.99188000">
        <ele>310.00000</ele>
        <time>2010-01-01T02:09:25Z</time>
      </trkpt>
      <trkpt lat="31.81313000" lon="34.99232000">
        <ele>303.00000</ele>
        <time>2010-01-01T02:09:43Z</time>
      </trkpt>
      <trkpt lat="31.81318000" lon="34.99251000">
        <ele>301.00000</ele>
        <time>2010-01-01T02:09:49Z</time>
      </trkpt>
      <trkpt lat="31.81318000" lon="34.99267000">
        <ele>301.00000</ele>
        <time>2010-01-01T02:09:55Z</time>
      </trkpt>
      <trkpt lat="31.81314000" lon="34.99284000">
        <ele>300.00000</ele>
        <time>2010-01-01T02:10:01Z</time>
      </trkpt>
      <trkpt lat="31.81245000" lon="34.99344000">
        <ele>297.00000</ele>
        <time>2010-01-01T02:10:35Z</time>
      </trkpt>
      <trkpt lat="31.81163000" lon="34.99408000">
        <ele>284.00000</ele>
        <time>2010-01-01T02:11:15Z</time>
      </trkpt>
      <trkpt lat="31.81132000" lon="34.99423000">
        <ele>282.00000</ele>
        <time>2010-01-01T02:11:28Z</time>
      </trkpt>
      <trkpt lat="31.81103000" lon="34.99425000">
        <ele>282.00000</ele>
        <time>2010-01-01T02:11:40Z</time>
      </trkpt>
      <trkpt lat="31.81089000" lon="34.99424000">
        <ele>283.00000</ele>
        <time>2010-01-01T02:11:45Z</time>
      </trkpt>
      <trkpt lat="31.81071000" lon="34.99428000">
        <ele>283.00000</ele>
        <time>2010-01-01T02:11:53Z</time>
      </trkpt>
      <trkpt lat="31.81065000" lon="34.99435000">
        <ele>282.00000</ele>
        <time>2010-01-01T02:11:56Z</time>
      </trkpt>
      <trkpt lat="31.81061000" lon="34.99444000">
        <ele>280.00000</ele>
        <time>2010-01-01T02:11:59Z</time>
      </trkpt>
      <trkpt lat="31.81056000" lon="34.99470000">
        <ele>276.00000</ele>
        <time>2010-01-01T02:12:08Z</time>
      </trkpt>
      <trkpt lat="31.81056000" lon="34.99481000">
        <ele>274.00000</ele>
        <time>2010-01-01T02:12:12Z</time>
      </trkpt>
      <trkpt lat="31.81055000" lon="34.99481000">
        <ele>274.00000</ele>
        <time>2010-01-01T02:12:13Z</time>
      </trkpt>
      <trkpt lat="31.81058000" lon="34.99496000">
        <ele>272.00000</ele>
        <time>2010-01-01T02:12:18Z</time>
      </trkpt>
      <trkpt lat="31.81066000" lon="34.99505000">
        <ele>272.00000</ele>
        <time>2010-01-01T02:12:22Z</time>
      </trkpt>
      <trkpt lat="31.81074000" lon="34.99509000">
        <ele>273.00000</ele>
        <time>2010-01-01T02:12:26Z</time>
      </trkpt>
      <trkpt lat="31.81096000" lon="34.99516000">
        <ele>274.00000</ele>
        <time>2010-01-01T02:12:35Z</time>
      </trkpt>
      <trkpt lat="31.81121000" lon="34.99519000">
        <ele>276.00000</ele>
        <time>2010-01-01T02:12:45Z</time>
      </trkpt>
      <trkpt lat="31.81140000" lon="34.99525000">
        <ele>277.00000</ele>
        <time>2010-01-01T02:12:53Z</time>
      </trkpt>
      <trkpt lat="31.81161000" lon="34.99528000">
        <ele>278.00000</ele>
        <time>2010-01-01T02:13:01Z</time>
      </trkpt>
      <trkpt lat="31.81180000" lon="34.99535000">
        <ele>278.00000</ele>
        <time>2010-01-01T02:13:09Z</time>
      </trkpt>
      <trkpt lat="31.81209000" lon="34.99551000">
        <ele>280.00000</ele>
        <time>2010-01-01T02:13:22Z</time>
      </trkpt>
      <trkpt lat="31.81245000" lon="34.99581000">
        <ele>285.00000</ele>
        <time>2010-01-01T02:13:40Z</time>
      </trkpt>
      <trkpt lat="31.81299000" lon="34.99634000">
        <ele>287.00000</ele>
        <time>2010-01-01T02:14:08Z</time>
      </trkpt>
      <trkpt lat="31.81312000" lon="34.99649000">
        <ele>290.00000</ele>
        <time>2010-01-01T02:14:15Z</time>
      </trkpt>
      <trkpt lat="31.81317000" lon="34.99660000">
        <ele>291.00000</ele>
        <time>2010-01-01T02:14:19Z</time>
      </trkpt>
      <trkpt lat="31.81318000" lon="34.99677000">
        <ele>293.00000</ele>
        <time>2010-01-01T02:14:25Z</time>
      </trkpt>
      <trkpt lat="31.81317000" lon="34.99687000">
        <ele>294.00000</ele>
        <time>2010-01-01T02:14:29Z</time>
      </trkpt>
      <trkpt lat="31.81307000" lon="34.99712000">
        <ele>294.00000</ele>
        <time>2010-01-01T02:14:38Z</time>
      </trkpt>
      <trkpt lat="31.81289000" lon="34.99736000">
        <ele>295.00000</ele>
        <time>2010-01-01T02:14:49Z</time>
      </trkpt>
      <trkpt lat="31.81275000" lon="34.99749000">
        <ele>297.00000</ele>
        <time>2010-01-01T02:14:56Z</time>
      </trkpt>
      <trkpt lat="31.81261000" lon="34.99760000">
        <ele>298.00000</ele>
        <time>2010-01-01T02:15:03Z</time>
      </trkpt>
      <trkpt lat="31.81237000" lon="34.99775000">
        <ele>302.00000</ele>
        <time>2010-01-01T02:15:14Z</time>
      </trkpt>
      <trkpt lat="31.81189000" lon="34.99841000">
        <ele>298.00000</ele>
        <time>2010-01-01T02:15:43Z</time>
      </trkpt>
      <trkpt lat="31.81134000" lon="34.99895000">
        <ele>297.00000</ele>
        <time>2010-01-01T02:16:12Z</time>
      </trkpt>
      <trkpt lat="31.81096000" lon="34.99906000">
        <ele>300.00000</ele>
        <time>2010-01-01T02:16:28Z</time>
      </trkpt>
      <trkpt lat="31.81080000" lon="34.99918000">
        <ele>300.00000</ele>
        <time>2010-01-01T02:16:35Z</time>
      </trkpt>
      <trkpt lat="31.81065000" lon="34.99933000">
        <ele>301.00000</ele>
        <time>2010-01-01T02:16:43Z</time>
      </trkpt>
      <trkpt lat="31.81054000" lon="34.99953000">
        <ele>301.00000</ele>
        <time>2010-01-01T02:16:51Z</time>
      </trkpt>
      <trkpt lat="31.81035000" lon="34.99985000">
        <ele>300.00000</ele>
        <time>2010-01-01T02:17:04Z</time>
      </trkpt>
      <trkpt lat="31.80997000" lon="35.00089000">
        <ele>295.00000</ele>
        <time>2010-01-01T02:17:43Z</time>
      </trkpt>
      <trkpt lat="31.80978000" lon="35.00134000">
        <ele>296.00000</ele>
        <time>2010-01-01T02:18:00Z</time>
      </trkpt>
      <trkpt lat="31.80947000" lon="35.00158000">
        <ele>295.00000</ele>
        <time>2010-01-01T02:18:15Z</time>
      </trkpt>
      <trkpt lat="31.80890000" lon="35.00173000">
        <ele>297.00000</ele>
        <time>2010-01-01T02:18:38Z</time>
      </trkpt>
      <trkpt lat="31.80866000" lon="35.00196000">
        <ele>297.00000</ele>
        <time>2010-01-01T02:18:51Z</time>
      </trkpt>
      <trkpt lat="31.80839000" lon="35.00261000">
        <ele>289.00000</ele>
        <time>2010-01-01T02:19:15Z</time>
      </trkpt>
      <trkpt lat="31.80827000" lon="35.00274000">
        <ele>287.00000</ele>
        <time>2010-01-01T02:19:22Z</time>
      </trkpt>
      <trkpt lat="31.80764000" lon="35.00290000">
        <ele>287.00000</ele>
        <time>2010-01-01T02:19:48Z</time>
      </trkpt>
      <trkpt lat="31.80758000" lon="35.00299000">
        <ele>286.00000</ele>
        <time>2010-01-01T02:19:51Z</time>
      </trkpt>
      <trkpt lat="31.80757000" lon="35.00329000">
        <ele>281.00000</ele>
        <time>2010-01-01T02:20:02Z</time>
      </trkpt>
      <trkpt lat="31.80748000" lon="35.00354000">
        <ele>280.00000</ele>
        <time>2010-01-01T02:20:11Z</time>
      </trkpt>
      <trkpt lat="31.80735000" lon="35.00374000">
        <ele>278.00000</ele>
        <time>2010-01-01T02:20:19Z</time>
      </trkpt>
      <trkpt lat="31.80721000" lon="35.00388000">
        <ele>278.00000</ele>
        <time>2010-01-01T02:20:27Z</time>
      </trkpt>
      <trkpt lat="31.80704000" lon="35.00402000">
        <ele>278.00000</ele>
        <time>2010-01-01T02:20:35Z</time>
      </trkpt>
      <trkpt lat="31.80696000" lon="35.00411000">
        <ele>277.00000</ele>
        <time>2010-01-01T02:20:40Z</time>
      </trkpt>
      <trkpt lat="31.80684000" lon="35.00432000">
        <ele>276.00000</ele>
        <time>2010-01-01T02:20:48Z</time>
      </trkpt>
      <trkpt lat="31.80666000" lon="35.00450000">
        <ele>276.00000</ele>
        <time>2010-01-01T02:20:58Z</time>
      </trkpt>
      <trkpt lat="31.80669000" lon="35.00465000">
        <ele>273.00000</ele>
        <time>2010-01-01T02:21:03Z</time>
      </trkpt>
      <trkpt lat="31.80676000" lon="35.00480000">
        <ele>272.00000</ele>
        <time>2010-01-01T02:21:09Z</time>
      </trkpt>
      <trkpt lat="31.80684000" lon="35.00494000">
        <ele>272.00000</ele>
        <time>2010-01-01T02:21:14Z</time>
      </trkpt>
      <trkpt lat="31.80690000" lon="35.00498000">
        <ele>272.00000</ele>
        <time>2010-01-01T02:21:17Z</time>
      </trkpt>
      <trkpt lat="31.80745000" lon="35.00469000">
        <ele>268.00000</ele>
        <time>2010-01-01T02:21:41Z</time>
      </trkpt>
      <trkpt lat="31.80767000" lon="35.00469000">
        <ele>269.00000</ele>
        <time>2010-01-01T02:21:50Z</time>
      </trkpt>
      <trkpt lat="31.80784000" lon="35.00475000">
        <ele>270.00000</ele>
        <time>2010-01-01T02:21:57Z</time>
      </trkpt>
      <trkpt lat="31.80799000" lon="35.00485000">
        <ele>270.00000</ele>
        <time>2010-01-01T02:22:04Z</time>
      </trkpt>
      <trkpt lat="31.80816000" lon="35.00494000">
        <ele>270.00000</ele>
        <time>2010-01-01T02:22:12Z</time>
      </trkpt>
      <trkpt lat="31.80816000" lon="35.00493000">
        <ele>270.00000</ele>
        <time>2010-01-01T02:22:12Z</time>
      </trkpt>
      <trkpt lat="31.80817000" lon="35.00494000">
        <ele>270.00000</ele>
        <time>2010-01-01T02:22:12Z</time>
      </trkpt>
      <trkpt lat="31.80821000" lon="35.00503000">
        <ele>272.00000</ele>
        <time>2010-01-01T02:22:16Z</time>
      </trkpt>
      <trkpt lat="31.80824000" lon="35.00515000">
        <ele>274.00000</ele>
        <time>2010-01-01T02:22:20Z</time>
      </trkpt>
      <trkpt lat="31.80823000" lon="35.00535000">
        <ele>278.00000</ele>
        <time>2010-01-01T02:22:27Z</time>
      </trkpt>
      <trkpt lat="31.80810000" lon="35.00588000">
        <ele>288.00000</ele>
        <time>2010-01-01T02:22:46Z</time>
      </trkpt>
      <trkpt lat="31.80790000" lon="35.00642000">
        <ele>297.00000</ele>
        <time>2010-01-01T02:23:06Z</time>
      </trkpt>
      <trkpt lat="31.80777000" lon="35.00684000">
        <ele>305.00000</ele>
        <time>2010-01-01T02:23:21Z</time>
      </trkpt>
      <trkpt lat="31.80772000" lon="35.00697000">
        <ele>307.00000</ele>
        <time>2010-01-01T02:23:26Z</time>
      </trkpt>
      <trkpt lat="31.80765000" lon="35.00708000">
        <ele>310.00000</ele>
        <time>2010-01-01T02:23:31Z</time>
      </trkpt>
      <trkpt lat="31.80735000" lon="35.00744000">
        <ele>316.00000</ele>
        <time>2010-01-01T02:23:48Z</time>
      </trkpt>
      <trkpt lat="31.80703000" lon="35.00798000">
        <ele>320.00000</ele>
        <time>2010-01-01T02:24:10Z</time>
      </trkpt>
      <trkpt lat="31.80694000" lon="35.00822000">
        <ele>323.00000</ele>
        <time>2010-01-01T02:24:19Z</time>
      </trkpt>
      <trkpt lat="31.80690000" lon="35.00838000">
        <ele>326.00000</ele>
        <time>2010-01-01T02:24:25Z</time>
      </trkpt>
      <trkpt lat="31.80689000" lon="35.00847000">
        <ele>327.00000</ele>
        <time>2010-01-01T02:24:28Z</time>
      </trkpt>
      <trkpt lat="31.80690000" lon="35.00855000">
        <ele>329.00000</ele>
        <time>2010-01-01T02:24:30Z</time>
      </trkpt>
      <trkpt lat="31.80695000" lon="35.00863000">
        <ele>331.00000</ele>
        <time>2010-01-01T02:24:34Z</time>
      </trkpt>
      <trkpt lat="31.80676000" lon="35.00885000">
        <ele>333.00000</ele>
        <time>2010-01-01T02:24:45Z</time>
      </trkpt>
      <trkpt lat="31.80665000" lon="35.00902000">
        <ele>334.00000</ele>
        <time>2010-01-01T02:24:52Z</time>
      </trkpt>
      <trkpt lat="31.80659000" lon="35.00922000">
        <ele>335.00000</ele>
        <time>2010-01-01T02:24:59Z</time>
      </trkpt>
      <trkpt lat="31.80648000" lon="35.00967000">
        <ele>333.00000</ele>
        <time>2010-01-01T02:25:15Z</time>
      </trkpt>
      <trkpt lat="31.80648000" lon="35.00992000">
        <ele>332.00000</ele>
        <time>2010-01-01T02:25:23Z</time>
      </trkpt>
      <trkpt lat="31.80658000" lon="35.01024000">
        <ele>334.00000</ele>
        <time>2010-01-01T02:25:35Z</time>
      </trkpt>
      <trkpt lat="31.80660000" lon="35.01037000">
        <ele>335.00000</ele>
        <time>2010-01-01T02:25:40Z</time>
      </trkpt>
      <trkpt lat="31.80659000" lon="35.01043000">
        <ele>335.00000</ele>
        <time>2010-01-01T02:25:42Z</time>
      </trkpt>
      <trkpt lat="31.80653000" lon="35.01079000">
        <ele>333.00000</ele>
        <time>2010-01-01T02:25:54Z</time>
      </trkpt>
      <trkpt lat="31.80644000" lon="35.01159000">
        <ele>328.00000</ele>
        <time>2010-01-01T02:26:22Z</time>
      </trkpt>
      <trkpt lat="31.80644000" lon="35.01176000">
        <ele>328.00000</ele>
        <time>2010-01-01T02:26:27Z</time>
      </trkpt>
      <trkpt lat="31.80641000" lon="35.01205000">
        <ele>328.00000</ele>
        <time>2010-01-01T02:26:37Z</time>
      </trkpt>
      <trkpt lat="31.80646000" lon="35.01239000">
        <ele>330.00000</ele>
        <time>2010-01-01T02:26:49Z</time>
      </trkpt>
      <trkpt lat="31.80654000" lon="35.01252000">
        <ele>331.00000</ele>
        <time>2010-01-01T02:26:54Z</time>
      </trkpt>
      <trkpt lat="31.80653000" lon="35.01261000">
        <ele>331.00000</ele>
        <time>2010-01-01T02:26:58Z</time>
      </trkpt>
      <trkpt lat="31.80647000" lon="35.01271000">
        <ele>330.00000</ele>
        <time>2010-01-01T02:27:02Z</time>
      </trkpt>
      <trkpt lat="31.80644000" lon="35.01283000">
        <ele>330.00000</ele>
        <time>2010-01-01T02:27:06Z</time>
      </trkpt>
      <trkpt lat="31.80643000" lon="35.01309000">
        <ele>332.00000</ele>
        <time>2010-01-01T02:27:15Z</time>
      </trkpt>
      <trkpt lat="31.80644000" lon="35.01339000">
        <ele>335.00000</ele>
        <time>2010-01-01T02:27:25Z</time>
      </trkpt>
      <trkpt lat="31.80647000" lon="35.01364000">
        <ele>337.00000</ele>
        <time>2010-01-01T02:27:34Z</time>
      </trkpt>
      <trkpt lat="31.80646000" lon="35.01372000">
        <ele>338.00000</ele>
        <time>2010-01-01T02:27:36Z</time>
      </trkpt>
      <trkpt lat="31.80640000" lon="35.01383000">
        <ele>338.00000</ele>
        <time>2010-01-01T02:27:41Z</time>
      </trkpt>
      <trkpt lat="31.80636000" lon="35.01395000">
        <ele>340.00000</ele>
        <time>2010-01-01T02:27:45Z</time>
      </trkpt>
      <trkpt lat="31.80627000" lon="35.01407000">
        <ele>342.00000</ele>
        <time>2010-01-01T02:27:51Z</time>
      </trkpt>
      <trkpt lat="31.80622000" lon="35.01419000">
        <ele>344.00000</ele>
        <time>2010-01-01T02:27:55Z</time>
      </trkpt>
      <trkpt lat="31.80621000" lon="35.01427000">
        <ele>345.00000</ele>
        <time>2010-01-01T02:27:58Z</time>
      </trkpt>
      <trkpt lat="31.80624000" lon="35.01448000">
        <ele>347.00000</ele>
        <time>2010-01-01T02:28:05Z</time>
      </trkpt>
      <trkpt lat="31.80634000" lon="35.01459000">
        <ele>348.00000</ele>
        <time>2010-01-01T02:28:11Z</time>
      </trkpt>
      <trkpt lat="31.80636000" lon="35.01467000">
        <ele>349.00000</ele>
        <time>2010-01-01T02:28:14Z</time>
      </trkpt>
      <trkpt lat="31.80644000" lon="35.01481000">
        <ele>351.00000</ele>
        <time>2010-01-01T02:28:19Z</time>
      </trkpt>
      <trkpt lat="31.80653000" lon="35.01489000">
        <ele>352.00000</ele>
        <time>2010-01-01T02:28:24Z</time>
      </trkpt>
      <trkpt lat="31.80674000" lon="35.01518000">
        <ele>352.00000</ele>
        <time>2010-01-01T02:28:37Z</time>
      </trkpt>
      <trkpt lat="31.80676000" lon="35.01526000">
        <ele>351.00000</ele>
        <time>2010-01-01T02:28:40Z</time>
      </trkpt>
      <trkpt lat="31.80671000" lon="35.01532000">
        <ele>350.00000</ele>
        <time>2010-01-01T02:28:42Z</time>
      </trkpt>
      <trkpt lat="31.80659000" lon="35.01541000">
        <ele>349.00000</ele>
        <time>2010-01-01T02:28:48Z</time>
      </trkpt>
      <trkpt lat="31.80650000" lon="35.01547000">
        <ele>348.00000</ele>
        <time>2010-01-01T02:28:52Z</time>
      </trkpt>
      <trkpt lat="31.80643000" lon="35.01548000">
        <ele>348.00000</ele>
        <time>2010-01-01T02:28:55Z</time>
      </trkpt>
      <trkpt lat="31.80622000" lon="35.01555000">
        <ele>347.00000</ele>
        <time>2010-01-01T02:29:04Z</time>
      </trkpt>
      <trkpt lat="31.80616000" lon="35.01560000">
        <ele>346.00000</ele>
        <time>2010-01-01T02:29:07Z</time>
      </trkpt>
      <trkpt lat="31.80614000" lon="35.01564000">
        <ele>345.00000</ele>
        <time>2010-01-01T02:29:08Z</time>
      </trkpt>
      <trkpt lat="31.80616000" lon="35.01572000">
        <ele>343.00000</ele>
        <time>2010-01-01T02:29:11Z</time>
      </trkpt>
      <trkpt lat="31.80621000" lon="35.01578000">
        <ele>342.00000</ele>
        <time>2010-01-01T02:29:14Z</time>
      </trkpt>
      <trkpt lat="31.80634000" lon="35.01585000">
        <ele>340.00000</ele>
        <time>2010-01-01T02:29:20Z</time>
      </trkpt>
      <trkpt lat="31.80652000" lon="35.01586000">
        <ele>339.00000</ele>
        <time>2010-01-01T02:29:27Z</time>
      </trkpt>
      <trkpt lat="31.80685000" lon="35.01584000">
        <ele>338.00000</ele>
        <time>2010-01-01T02:29:40Z</time>
      </trkpt>
      <trkpt lat="31.80699000" lon="35.01582000">
        <ele>337.00000</ele>
        <time>2010-01-01T02:29:46Z</time>
      </trkpt>
      <trkpt lat="31.80709000" lon="35.01578000">
        <ele>337.00000</ele>
        <time>2010-01-01T02:29:50Z</time>
      </trkpt>
      <trkpt lat="31.80727000" lon="35.01562000">
        <ele>339.00000</ele>
        <time>2010-01-01T02:29:59Z</time>
      </trkpt>
      <trkpt lat="31.80748000" lon="35.01560000">
        <ele>336.00000</ele>
        <time>2010-01-01T02:30:08Z</time>
      </trkpt>
      <trkpt lat="31.80769000" lon="35.01552000">
        <ele>336.00000</ele>
        <time>2010-01-01T02:30:16Z</time>
      </trkpt>
      <trkpt lat="31.80772000" lon="35.01553000">
        <ele>335.00000</ele>
        <time>2010-01-01T02:30:18Z</time>
      </trkpt>
      <trkpt lat="31.80773000" lon="35.01556000">
        <ele>334.00000</ele>
        <time>2010-01-01T02:30:19Z</time>
      </trkpt>
      <trkpt lat="31.80772000" lon="35.01560000">
        <ele>333.00000</ele>
        <time>2010-01-01T02:30:20Z</time>
      </trkpt>
      <trkpt lat="31.80764000" lon="35.01574000">
        <ele>330.00000</ele>
        <time>2010-01-01T02:30:26Z</time>
      </trkpt>
      <trkpt lat="31.80750000" lon="35.01588000">
        <ele>329.00000</ele>
        <time>2010-01-01T02:30:33Z</time>
      </trkpt>
      <trkpt lat="31.80740000" lon="35.01592000">
        <ele>329.00000</ele>
        <time>2010-01-01T02:30:37Z</time>
      </trkpt>
      <trkpt lat="31.80735000" lon="35.01597000">
        <ele>329.00000</ele>
        <time>2010-01-01T02:30:40Z</time>
      </trkpt>
      <trkpt lat="31.80716000" lon="35.01622000">
        <ele>326.00000</ele>
        <time>2010-01-01T02:30:52Z</time>
      </trkpt>
      <trkpt lat="31.80730000" lon="35.01620000">
        <ele>325.00000</ele>
        <time>2010-01-01T02:30:57Z</time>
      </trkpt>
      <trkpt lat="31.80828000" lon="35.01587000">
        <ele>316.00000</ele>
        <time>2010-01-01T02:31:38Z</time>
      </trkpt>
      <trkpt lat="31.80918000" lon="35.01603000">
        <ele>305.00000</ele>
        <time>2010-01-01T02:32:14Z</time>
      </trkpt>
      <trkpt lat="31.80960000" lon="35.01575000">
        <ele>302.00000</ele>
        <time>2010-01-01T02:32:34Z</time>
      </trkpt>
      <trkpt lat="31.81014000" lon="35.01612000">
        <ele>295.00000</ele>
        <time>2010-01-01T02:32:59Z</time>
      </trkpt>
      <trkpt lat="31.81062430" lon="35.01474730">
        <ele>295.00000</ele>
        <time>2010-01-01T02:33:49Z</time>
      </trkpt>
    </trkseg>
  </trk>
</gpx>

